<?xml version="1.0" encoding="UTF-8" standalone="no" ?>
<gpx xmlns="http://www.topografix.com/GPX/1/1" xmlns:xsi="http://www.w3.org/2001/XMLSchema-instance" xsi:schemaLocation="http://www.topografix.com/GPX/1/1 http://www.topografix.com/GPX/1/1/gpx.xsd" version="1.1" creator="VisuGPX - https://www.visugpx.com">
  <metadata>
    <name>Saint Martin d\'Ardèche 67km</name>
    <desc><![CDATA[Saint Martin d\'Ardèche 67km]]></desc>
  </metadata>
  <trk>
    <name><![CDATA[Tour des gorges de l'Ardèche - 4 - UtagawaVTT.com]]></name>
    <trkseg>
      <trkpt lat="44.30043" lon="4.56864">
        <ele>57.619064</ele>
        <time>2003-10-17T08:42:12Z</time>
      </trkpt>
      <trkpt lat="44.30018" lon="4.56935">
        <ele>57.09</ele>
        <time>2003-10-17T08:42:42Z</time>
      </trkpt>
      <trkpt lat="44.30039" lon="4.5698">
        <ele>56.584999</ele>
        <time>2003-10-17T08:42:54Z</time>
      </trkpt>
      <trkpt lat="44.30031" lon="4.57051">
        <ele>56.122925</ele>
        <time>2003-10-17T08:43:06Z</time>
      </trkpt>
      <trkpt lat="44.30033" lon="4.5707">
        <ele>56</ele>
        <time>2003-10-17T08:43:09Z</time>
      </trkpt>
      <trkpt lat="44.30063" lon="4.57154">
        <ele>56.509808</ele>
        <time>2003-10-17T08:43:25Z</time>
      </trkpt>
      <trkpt lat="44.30095" lon="4.57267">
        <ele>59.954651</ele>
        <time>2003-10-17T08:43:48Z</time>
      </trkpt>
      <trkpt lat="44.30127" lon="4.57269">
        <ele>62.937313</ele>
        <time>2003-10-17T08:43:57Z</time>
      </trkpt>
      <trkpt lat="44.30153" lon="4.57244">
        <ele>67.4375</ele>
        <time>2003-10-17T08:44:05Z</time>
      </trkpt>
      <trkpt lat="44.30157" lon="4.57169">
        <ele>66.43</ele>
        <time>2003-10-17T08:44:23Z</time>
      </trkpt>
      <trkpt lat="44.30175" lon="4.57117">
        <ele>65.509018</ele>
        <time>2003-10-17T08:44:40Z</time>
      </trkpt>
      <trkpt lat="44.30209" lon="4.57098">
        <ele>68.806252</ele>
        <time>2003-10-17T08:45:00Z</time>
      </trkpt>
      <trkpt lat="44.30237" lon="4.57124">
        <ele>74.57</ele>
        <time>2003-10-17T08:45:18Z</time>
      </trkpt>
      <trkpt lat="44.30248" lon="4.57126">
        <ele>76.013985</ele>
        <time>2003-10-17T08:45:24Z</time>
      </trkpt>
      <trkpt lat="44.30286" lon="4.57111">
        <ele>78.609703</ele>
        <time>2003-10-17T08:45:43Z</time>
      </trkpt>
      <trkpt lat="44.30321" lon="4.57117">
        <ele>81.673248</ele>
        <time>2003-10-17T08:46:00Z</time>
      </trkpt>
      <trkpt lat="44.30404" lon="4.57113">
        <ele>88.540886</ele>
        <time>2003-10-17T08:46:34Z</time>
      </trkpt>
      <trkpt lat="44.30441" lon="4.57104">
        <ele>91.968231</ele>
        <time>2003-10-17T08:46:50Z</time>
      </trkpt>
      <trkpt lat="44.30503" lon="4.57104">
        <ele>100.513596</ele>
        <time>2003-10-17T08:47:23Z</time>
      </trkpt>
      <trkpt lat="44.30557" lon="4.57096">
        <ele>108.540291</ele>
        <time>2003-10-17T08:47:52Z</time>
      </trkpt>
      <trkpt lat="44.30692" lon="4.57119">
        <ele>127.795273</ele>
        <time>2003-10-17T08:49:19Z</time>
      </trkpt>
      <trkpt lat="44.30752" lon="4.57083">
        <ele>139.229996</ele>
        <time>2003-10-17T08:50:15Z</time>
      </trkpt>
      <trkpt lat="44.30827" lon="4.57063">
        <ele>150.332504</ele>
        <time>2003-10-17T08:51:17Z</time>
      </trkpt>
      <trkpt lat="44.3084" lon="4.57027">
        <ele>150.113342</ele>
        <time>2003-10-17T08:51:42Z</time>
      </trkpt>
      <trkpt lat="44.30913" lon="4.56986">
        <ele>151.298752</ele>
        <time>2003-10-17T08:52:08Z</time>
      </trkpt>
      <trkpt lat="44.31026" lon="4.5696">
        <ele>155.224121</ele>
        <time>2003-10-17T08:52:43Z</time>
      </trkpt>
      <trkpt lat="44.31125" lon="4.56958">
        <ele>160.130005</ele>
        <time>2003-10-17T08:53:11Z</time>
      </trkpt>
      <trkpt lat="44.31224" lon="4.56993">
        <ele>167.105774</ele>
        <time>2003-10-17T08:53:41Z</time>
      </trkpt>
      <trkpt lat="44.31355" lon="4.57061">
        <ele>166.336304</ele>
        <time>2003-10-17T08:54:24Z</time>
      </trkpt>
      <trkpt lat="44.31372" lon="4.57076">
        <ele>165.567352</ele>
        <time>2003-10-17T08:54:28Z</time>
      </trkpt>
      <trkpt lat="44.31477" lon="4.57102">
        <ele>165.266678</ele>
        <time>2003-10-17T08:54:47Z</time>
      </trkpt>
      <trkpt lat="44.31462" lon="4.56988">
        <ele>166.148438</ele>
        <time>2003-10-17T08:55:24Z</time>
      </trkpt>
      <trkpt lat="44.31514" lon="4.5689">
        <ele>173.603745</ele>
        <time>2003-10-17T08:55:53Z</time>
      </trkpt>
      <trkpt lat="44.31524" lon="4.56851">
        <ele>177.025131</ele>
        <time>2003-10-17T08:56:08Z</time>
      </trkpt>
      <trkpt lat="44.31537" lon="4.56769">
        <ele>183.046249</ele>
        <time>2003-10-17T08:56:44Z</time>
      </trkpt>
      <trkpt lat="44.31537" lon="4.56694">
        <ele>184.306427</ele>
        <time>2003-10-17T08:57:09Z</time>
      </trkpt>
      <trkpt lat="44.31544" lon="4.56606">
        <ele>186.027267</ele>
        <time>2003-10-17T08:57:27Z</time>
      </trkpt>
      <trkpt lat="44.3158" lon="4.56469">
        <ele>187.886246</ele>
        <time>2003-10-17T08:58:07Z</time>
      </trkpt>
      <trkpt lat="44.31617" lon="4.5639">
        <ele>189.990417</ele>
        <time>2003-10-17T08:58:31Z</time>
      </trkpt>
      <trkpt lat="44.31692" lon="4.56263">
        <ele>200.182373</ele>
        <time>2003-10-17T08:59:14Z</time>
      </trkpt>
      <trkpt lat="44.31741" lon="4.56201">
        <ele>198.367203</ele>
        <time>2003-10-17T08:59:40Z</time>
      </trkpt>
      <trkpt lat="44.31773" lon="4.56173">
        <ele>195.565506</ele>
        <time>2003-10-17T08:59:50Z</time>
      </trkpt>
      <trkpt lat="44.31865" lon="4.56016">
        <ele>169.214233</ele>
        <time>2003-10-17T09:00:18Z</time>
      </trkpt>
      <trkpt lat="44.31893" lon="4.56003">
        <ele>165.148743</ele>
        <time>2003-10-17T09:00:29Z</time>
      </trkpt>
      <trkpt lat="44.31902" lon="4.55995">
        <ele>163.873749</ele>
        <time>2003-10-17T09:00:36Z</time>
      </trkpt>
      <trkpt lat="44.31934" lon="4.56021">
        <ele>163.014786</ele>
        <time>2003-10-17T09:00:56Z</time>
      </trkpt>
      <trkpt lat="44.31938" lon="4.56044">
        <ele>163.676086</ele>
        <time>2003-10-17T09:02:20Z</time>
      </trkpt>
      <trkpt lat="44.31996" lon="4.56036">
        <ele>150.835968</ele>
        <time>2003-10-17T09:02:39Z</time>
      </trkpt>
      <trkpt lat="44.32125" lon="4.56094">
        <ele>123.212128</ele>
        <time>2003-10-17T09:03:10Z</time>
      </trkpt>
      <trkpt lat="44.32142" lon="4.56089">
        <ele>119.974815</ele>
        <time>2003-10-17T09:03:14Z</time>
      </trkpt>
      <trkpt lat="44.32196" lon="4.56104">
        <ele>111.874893</ele>
        <time>2003-10-17T09:03:31Z</time>
      </trkpt>
      <trkpt lat="44.32271" lon="4.56079">
        <ele>104.2939</ele>
        <time>2003-10-17T09:03:55Z</time>
      </trkpt>
      <trkpt lat="44.32316" lon="4.5607">
        <ele>106.620003</ele>
        <time>2003-10-17T09:04:12Z</time>
      </trkpt>
      <trkpt lat="44.3231" lon="4.56066">
        <ele>106.025002</ele>
        <time>2003-10-17T09:04:18Z</time>
      </trkpt>
      <trkpt lat="44.32316" lon="4.56074">
        <ele>106.482498</ele>
        <time>2003-10-17T09:04:29Z</time>
      </trkpt>
      <trkpt lat="44.32325" lon="4.56074">
        <ele>107.455002</ele>
        <time>2003-10-17T09:06:48Z</time>
      </trkpt>
      <trkpt lat="44.32353" lon="4.56091">
        <ele>109.726402</ele>
        <time>2003-10-17T09:07:06Z</time>
      </trkpt>
      <trkpt lat="44.32383" lon="4.56091">
        <ele>112.43</ele>
        <time>2003-10-17T09:07:16Z</time>
      </trkpt>
      <trkpt lat="44.32453" lon="4.56113">
        <ele>117.619583</ele>
        <time>2003-10-17T09:07:48Z</time>
      </trkpt>
      <trkpt lat="44.3246" lon="4.56102">
        <ele>117.795914</ele>
        <time>2003-10-17T09:07:53Z</time>
      </trkpt>
      <trkpt lat="44.32464" lon="4.56046">
        <ele>120.573997</ele>
        <time>2003-10-17T09:08:19Z</time>
      </trkpt>
      <trkpt lat="44.32445" lon="4.56008">
        <ele>121.296021</ele>
        <time>2003-10-17T09:08:35Z</time>
      </trkpt>
      <trkpt lat="44.32441" lon="4.55978">
        <ele>122.904884</ele>
        <time>2003-10-17T09:08:48Z</time>
      </trkpt>
      <trkpt lat="44.32453" lon="4.55969">
        <ele>124.935043</ele>
        <time>2003-10-17T09:09:01Z</time>
      </trkpt>
      <trkpt lat="44.32473" lon="4.55945">
        <ele>128.979477</ele>
        <time>2003-10-17T09:09:26Z</time>
      </trkpt>
      <trkpt lat="44.32475" lon="4.55888">
        <ele>133.693756</ele>
        <time>2003-10-17T09:09:55Z</time>
      </trkpt>
      <trkpt lat="44.32479" lon="4.55877">
        <ele>135.012497</ele>
        <time>2003-10-17T09:10:00Z</time>
      </trkpt>
      <trkpt lat="44.32507" lon="4.55873">
        <ele>138.524994</ele>
        <time>2003-10-17T09:10:18Z</time>
      </trkpt>
      <trkpt lat="44.32539" lon="4.55851">
        <ele>142.105042</ele>
        <time>2003-10-17T09:11:06Z</time>
      </trkpt>
      <trkpt lat="44.32548" lon="4.55851">
        <ele>142.370514</ele>
        <time>2003-10-17T09:11:12Z</time>
      </trkpt>
      <trkpt lat="44.32554" lon="4.55845">
        <ele>142.811249</ele>
        <time>2003-10-17T09:11:18Z</time>
      </trkpt>
      <trkpt lat="44.32563" lon="4.55847">
        <ele>142.938217</ele>
        <time>2003-10-17T09:11:24Z</time>
      </trkpt>
      <trkpt lat="44.32616" lon="4.55922">
        <ele>145.011154</ele>
        <time>2003-10-17T09:12:12Z</time>
      </trkpt>
      <trkpt lat="44.3264" lon="4.55918">
        <ele>146.037094</ele>
        <time>2003-10-17T09:12:32Z</time>
      </trkpt>
      <trkpt lat="44.32687" lon="4.55892">
        <ele>143.766251</ele>
        <time>2003-10-17T09:13:52Z</time>
      </trkpt>
      <trkpt lat="44.32685" lon="4.55888">
        <ele>143.119995</ele>
        <time>2003-10-17T09:14:29Z</time>
      </trkpt>
      <trkpt lat="44.32709" lon="4.55877">
        <ele>141.654663</ele>
        <time>2003-10-17T09:14:57Z</time>
      </trkpt>
      <trkpt lat="44.32803" lon="4.55851">
        <ele>138.886383</ele>
        <time>2003-10-17T09:15:24Z</time>
      </trkpt>
      <trkpt lat="44.32837" lon="4.5581">
        <ele>131.895538</ele>
        <time>2003-10-17T09:15:35Z</time>
      </trkpt>
      <trkpt lat="44.32945" lon="4.55731">
        <ele>124.36821</ele>
        <time>2003-10-17T09:15:54Z</time>
      </trkpt>
      <trkpt lat="44.33159" lon="4.55641">
        <ele>134.679657</ele>
        <time>2003-10-17T09:17:00Z</time>
      </trkpt>
      <trkpt lat="44.33204" lon="4.55649">
        <ele>134.425201</ele>
        <time>2003-10-17T09:17:15Z</time>
      </trkpt>
      <trkpt lat="44.33254" lon="4.55641">
        <ele>137.205887</ele>
        <time>2003-10-17T09:17:30Z</time>
      </trkpt>
      <trkpt lat="44.33327" lon="4.55654">
        <ele>144.112503</ele>
        <time>2003-10-17T09:17:53Z</time>
      </trkpt>
      <trkpt lat="44.33387" lon="4.55628">
        <ele>145.247192</ele>
        <time>2003-10-17T09:18:14Z</time>
      </trkpt>
      <trkpt lat="44.33447" lon="4.55568">
        <ele>143.204712</ele>
        <time>2003-10-17T09:18:38Z</time>
      </trkpt>
      <trkpt lat="44.33473" lon="4.55553">
        <ele>147.017258</ele>
        <time>2003-10-17T09:18:48Z</time>
      </trkpt>
      <trkpt lat="44.3349" lon="4.55559">
        <ele>146.596924</ele>
        <time>2003-10-17T09:18:52Z</time>
      </trkpt>
      <trkpt lat="44.33543" lon="4.55557">
        <ele>150.175003</ele>
        <time>2003-10-17T09:19:09Z</time>
      </trkpt>
      <trkpt lat="44.33629" lon="4.55523">
        <ele>156.427475</ele>
        <time>2003-10-17T09:19:39Z</time>
      </trkpt>
      <trkpt lat="44.33689" lon="4.55465">
        <ele>158.543121</ele>
        <time>2003-10-17T09:20:03Z</time>
      </trkpt>
      <trkpt lat="44.33762" lon="4.55413">
        <ele>166.657837</ele>
        <time>2003-10-17T09:20:34Z</time>
      </trkpt>
      <trkpt lat="44.33792" lon="4.55379">
        <ele>164.97818</ele>
        <time>2003-10-17T09:20:51Z</time>
      </trkpt>
      <trkpt lat="44.33837" lon="4.55302">
        <ele>174.420059</ele>
        <time>2003-10-17T09:21:24Z</time>
      </trkpt>
      <trkpt lat="44.33825" lon="4.5524">
        <ele>170.186615</ele>
        <time>2003-10-17T09:21:42Z</time>
      </trkpt>
      <trkpt lat="44.33829" lon="4.55186">
        <ele>174.802673</ele>
        <time>2003-10-17T09:22:00Z</time>
      </trkpt>
      <trkpt lat="44.33842" lon="4.55164">
        <ele>177.893372</ele>
        <time>2003-10-17T09:22:10Z</time>
      </trkpt>
      <trkpt lat="44.33876" lon="4.55147">
        <ele>179.102493</ele>
        <time>2003-10-17T09:22:27Z</time>
      </trkpt>
      <trkpt lat="44.33981" lon="4.55141">
        <ele>184.835709</ele>
        <time>2003-10-17T09:23:16Z</time>
      </trkpt>
      <trkpt lat="44.34065" lon="4.55158">
        <ele>190.20813</ele>
        <time>2003-10-17T09:23:44Z</time>
      </trkpt>
      <trkpt lat="44.3411" lon="4.55173">
        <ele>195.711273</ele>
        <time>2003-10-17T09:23:57Z</time>
      </trkpt>
      <trkpt lat="44.34146" lon="4.55194">
        <ele>199.489395</ele>
        <time>2003-10-17T09:24:11Z</time>
      </trkpt>
      <trkpt lat="44.34222" lon="4.55222">
        <ele>203.315002</ele>
        <time>2003-10-17T09:24:42Z</time>
      </trkpt>
      <trkpt lat="44.34279" lon="4.5522">
        <ele>212.345444</ele>
        <time>2003-10-17T09:25:12Z</time>
      </trkpt>
      <trkpt lat="44.3435" lon="4.55184">
        <ele>217.574905</ele>
        <time>2003-10-17T09:25:58Z</time>
      </trkpt>
      <trkpt lat="44.34395" lon="4.55175">
        <ele>218.245392</ele>
        <time>2003-10-17T09:26:20Z</time>
      </trkpt>
      <trkpt lat="44.34421" lon="4.55164">
        <ele>219.508118</ele>
        <time>2003-10-17T09:26:32Z</time>
      </trkpt>
      <trkpt lat="44.34455" lon="4.5516">
        <ele>223.72142</ele>
        <time>2003-10-17T09:26:47Z</time>
      </trkpt>
      <trkpt lat="44.34509" lon="4.55173">
        <ele>227.494995</ele>
        <time>2003-10-17T09:27:11Z</time>
      </trkpt>
      <trkpt lat="44.34618" lon="4.55156">
        <ele>239.377289</ele>
        <time>2003-10-17T09:27:53Z</time>
      </trkpt>
      <trkpt lat="44.34668" lon="4.55141">
        <ele>242.706879</ele>
        <time>2003-10-17T09:28:14Z</time>
      </trkpt>
      <trkpt lat="44.34689" lon="4.55126">
        <ele>242.818344</ele>
        <time>2003-10-17T09:28:26Z</time>
      </trkpt>
      <trkpt lat="44.34745" lon="4.551">
        <ele>247.157089</ele>
        <time>2003-10-17T09:28:53Z</time>
      </trkpt>
      <trkpt lat="44.34855" lon="4.54993">
        <ele>253.652496</ele>
        <time>2003-10-17T09:29:45Z</time>
      </trkpt>
      <trkpt lat="44.34867" lon="4.54991">
        <ele>254.022507</ele>
        <time>2003-10-17T09:29:53Z</time>
      </trkpt>
      <trkpt lat="44.34878" lon="4.55008">
        <ele>253.716171</ele>
        <time>2003-10-17T09:30:11Z</time>
      </trkpt>
      <trkpt lat="44.34874" lon="4.55001">
        <ele>253.834793</ele>
        <time>2003-10-17T09:31:06Z</time>
      </trkpt>
      <trkpt lat="44.34897" lon="4.55057">
        <ele>252.105286</ele>
        <time>2003-10-17T09:31:29Z</time>
      </trkpt>
      <trkpt lat="44.3491" lon="4.5501">
        <ele>254.261047</ele>
        <time>2003-10-17T09:31:45Z</time>
      </trkpt>
      <trkpt lat="44.34968" lon="4.54905">
        <ele>257.548737</ele>
        <time>2003-10-17T09:32:16Z</time>
      </trkpt>
      <trkpt lat="44.35065" lon="4.54804">
        <ele>260.345001</ele>
        <time>2003-10-17T09:33:05Z</time>
      </trkpt>
      <trkpt lat="44.35067" lon="4.54789">
        <ele>260.626251</ele>
        <time>2003-10-17T09:33:11Z</time>
      </trkpt>
      <trkpt lat="44.35093" lon="4.54725">
        <ele>261.864532</ele>
        <time>2003-10-17T09:33:35Z</time>
      </trkpt>
      <trkpt lat="44.35106" lon="4.54643">
        <ele>262.003876</ele>
        <time>2003-10-17T09:33:57Z</time>
      </trkpt>
      <trkpt lat="44.35116" lon="4.54602">
        <ele>261.691467</ele>
        <time>2003-10-17T09:34:05Z</time>
      </trkpt>
      <trkpt lat="44.35166" lon="4.54564">
        <ele>259.763153</ele>
        <time>2003-10-17T09:34:20Z</time>
      </trkpt>
      <trkpt lat="44.35196" lon="4.54566">
        <ele>259.039978</ele>
        <time>2003-10-17T09:34:28Z</time>
      </trkpt>
      <trkpt lat="44.352" lon="4.54529">
        <ele>259.027679</ele>
        <time>2003-10-17T09:34:34Z</time>
      </trkpt>
      <trkpt lat="44.35226" lon="4.54476">
        <ele>260.849213</ele>
        <time>2003-10-17T09:34:44Z</time>
      </trkpt>
      <trkpt lat="44.35256" lon="4.5448">
        <ele>261.08432</ele>
        <time>2003-10-17T09:34:55Z</time>
      </trkpt>
      <trkpt lat="44.35397" lon="4.5439">
        <ele>260.629211</ele>
        <time>2003-10-17T09:35:36Z</time>
      </trkpt>
      <trkpt lat="44.35423" lon="4.5439">
        <ele>260.07251</ele>
        <time>2003-10-17T09:35:42Z</time>
      </trkpt>
      <trkpt lat="44.35462" lon="4.54398">
        <ele>260</ele>
        <time>2003-10-17T09:35:50Z</time>
      </trkpt>
      <trkpt lat="44.35511" lon="4.54422">
        <ele>260.403778</ele>
        <time>2003-10-17T09:36:00Z</time>
      </trkpt>
      <trkpt lat="44.35599" lon="4.54381">
        <ele>260.626862</ele>
        <time>2003-10-17T09:36:24Z</time>
      </trkpt>
      <trkpt lat="44.3564" lon="4.54383">
        <ele>262.069031</ele>
        <time>2003-10-17T09:36:40Z</time>
      </trkpt>
      <trkpt lat="44.35694" lon="4.54366">
        <ele>263.762512</ele>
        <time>2003-10-17T09:37:01Z</time>
      </trkpt>
      <trkpt lat="44.35968" lon="4.54173">
        <ele>270.149994</ele>
        <time>2003-10-17T09:38:22Z</time>
      </trkpt>
      <trkpt lat="44.36069" lon="4.54072">
        <ele>271.912567</ele>
        <time>2003-10-17T09:38:54Z</time>
      </trkpt>
      <trkpt lat="44.36078" lon="4.54055">
        <ele>272.003845</ele>
        <time>2003-10-17T09:38:58Z</time>
      </trkpt>
      <trkpt lat="44.36161" lon="4.53976">
        <ele>274.334991</ele>
        <time>2003-10-17T09:39:18Z</time>
      </trkpt>
      <trkpt lat="44.36331" lon="4.53856">
        <ele>283.543762</ele>
        <time>2003-10-17T09:40:45Z</time>
      </trkpt>
      <trkpt lat="44.36361" lon="4.5383">
        <ele>285.079987</ele>
        <time>2003-10-17T09:41:01Z</time>
      </trkpt>
      <trkpt lat="44.36483" lon="4.53744">
        <ele>291.922516</ele>
        <time>2003-10-17T09:42:00Z</time>
      </trkpt>
      <trkpt lat="44.36526" lon="4.53688">
        <ele>291.730499</ele>
        <time>2003-10-17T09:42:19Z</time>
      </trkpt>
      <trkpt lat="44.36554" lon="4.53559">
        <ele>282.88501</ele>
        <time>2003-10-17T09:42:41Z</time>
      </trkpt>
      <trkpt lat="44.36565" lon="4.53536">
        <ele>282.23999</ele>
        <time>2003-10-17T09:42:47Z</time>
      </trkpt>
      <trkpt lat="44.36588" lon="4.53506">
        <ele>283.352386</ele>
        <time>2003-10-17T09:42:54Z</time>
      </trkpt>
      <trkpt lat="44.36661" lon="4.53465">
        <ele>294.931641</ele>
        <time>2003-10-17T09:46:35Z</time>
      </trkpt>
      <trkpt lat="44.36741" lon="4.53476">
        <ele>299.908051</ele>
        <time>2003-10-17T09:47:06Z</time>
      </trkpt>
      <trkpt lat="44.36736" lon="4.53467">
        <ele>300.922516</ele>
        <time>2003-10-17T09:47:12Z</time>
      </trkpt>
      <trkpt lat="44.367" lon="4.53441">
        <ele>301.070709</ele>
        <time>2003-10-17T09:47:31Z</time>
      </trkpt>
      <trkpt lat="44.36674" lon="4.53407">
        <ele>303.464142</ele>
        <time>2003-10-17T09:47:51Z</time>
      </trkpt>
      <trkpt lat="44.36666" lon="4.53386">
        <ele>305.188171</ele>
        <time>2003-10-17T09:48:12Z</time>
      </trkpt>
      <trkpt lat="44.36653" lon="4.53368">
        <ele>305.008057</ele>
        <time>2003-10-17T09:48:22Z</time>
      </trkpt>
      <trkpt lat="44.36648" lon="4.53356">
        <ele>305.487</ele>
        <time>2003-10-17T09:48:36Z</time>
      </trkpt>
      <trkpt lat="44.36659" lon="4.53308">
        <ele>311.665314</ele>
        <time>2003-10-17T09:48:56Z</time>
      </trkpt>
      <trkpt lat="44.36689" lon="4.53233">
        <ele>320.808044</ele>
        <time>2003-10-17T09:49:30Z</time>
      </trkpt>
      <trkpt lat="44.36693" lon="4.53066">
        <ele>325.006836</ele>
        <time>2003-10-17T09:50:18Z</time>
      </trkpt>
      <trkpt lat="44.36674" lon="4.53023">
        <ele>321.317719</ele>
        <time>2003-10-17T09:50:29Z</time>
      </trkpt>
      <trkpt lat="44.36655" lon="4.52948">
        <ele>315.13501</ele>
        <time>2003-10-17T09:50:40Z</time>
      </trkpt>
      <trkpt lat="44.36657" lon="4.5289">
        <ele>311.897614</ele>
        <time>2003-10-17T09:50:49Z</time>
      </trkpt>
      <trkpt lat="44.36666" lon="4.52871">
        <ele>311.5</ele>
        <time>2003-10-17T09:50:53Z</time>
      </trkpt>
      <trkpt lat="44.36702" lon="4.52832">
        <ele>313.392487</ele>
        <time>2003-10-17T09:51:06Z</time>
      </trkpt>
      <trkpt lat="44.36706" lon="4.52821">
        <ele>313.415009</ele>
        <time>2003-10-17T09:51:10Z</time>
      </trkpt>
      <trkpt lat="44.3676" lon="4.52763">
        <ele>317.54248</ele>
        <time>2003-10-17T09:51:38Z</time>
      </trkpt>
      <trkpt lat="44.36826" lon="4.52708">
        <ele>320.900787</ele>
        <time>2003-10-17T09:52:04Z</time>
      </trkpt>
      <trkpt lat="44.36872" lon="4.52677">
        <ele>323.360016</ele>
        <time>2003-10-17T09:52:18Z</time>
      </trkpt>
      <trkpt lat="44.36908" lon="4.52622">
        <ele>327.73761</ele>
        <time>2003-10-17T09:52:30Z</time>
      </trkpt>
      <trkpt lat="44.36962" lon="4.52577">
        <ele>334.941803</ele>
        <time>2003-10-17T09:52:52Z</time>
      </trkpt>
      <trkpt lat="44.37056" lon="4.52478">
        <ele>341.113403</ele>
        <time>2003-10-17T09:53:42Z</time>
      </trkpt>
      <trkpt lat="44.37153" lon="4.52463">
        <ele>348.372498</ele>
        <time>2003-10-17T09:54:28Z</time>
      </trkpt>
      <trkpt lat="44.37172" lon="4.52452">
        <ele>349.794006</ele>
        <time>2003-10-17T09:54:39Z</time>
      </trkpt>
      <trkpt lat="44.37202" lon="4.52405">
        <ele>352.727112</ele>
        <time>2003-10-17T09:55:06Z</time>
      </trkpt>
      <trkpt lat="44.37226" lon="4.52379">
        <ele>355.232422</ele>
        <time>2003-10-17T09:55:23Z</time>
      </trkpt>
      <trkpt lat="44.37262" lon="4.52353">
        <ele>359.047485</ele>
        <time>2003-10-17T09:55:45Z</time>
      </trkpt>
      <trkpt lat="44.37307" lon="4.52349">
        <ele>360.873352</ele>
        <time>2003-10-17T09:56:09Z</time>
      </trkpt>
      <trkpt lat="44.37384" lon="4.52371">
        <ele>366.017487</ele>
        <time>2003-10-17T09:56:49Z</time>
      </trkpt>
      <trkpt lat="44.3741" lon="4.52371">
        <ele>368.32373</ele>
        <time>2003-10-17T09:57:02Z</time>
      </trkpt>
      <trkpt lat="44.37427" lon="4.52362">
        <ele>369.981262</ele>
        <time>2003-10-17T09:57:18Z</time>
      </trkpt>
      <trkpt lat="44.37539" lon="4.52403">
        <ele>378.204987</ele>
        <time>2003-10-17T10:00:36Z</time>
      </trkpt>
      <trkpt lat="44.3755" lon="4.52416">
        <ele>378.55658</ele>
        <time>2003-10-17T10:00:42Z</time>
      </trkpt>
      <trkpt lat="44.37567" lon="4.5245">
        <ele>379.280518</ele>
        <time>2003-10-17T10:01:00Z</time>
      </trkpt>
      <trkpt lat="44.37558" lon="4.52559">
        <ele>380.836243</ele>
        <time>2003-10-17T10:01:36Z</time>
      </trkpt>
      <trkpt lat="44.37552" lon="4.52557">
        <ele>380.225006</ele>
        <time>2003-10-17T10:01:48Z</time>
      </trkpt>
      <trkpt lat="44.37552" lon="4.52553">
        <ele>380.147491</ele>
        <time>2003-10-17T10:02:26Z</time>
      </trkpt>
      <trkpt lat="44.37528" lon="4.52585">
        <ele>378.758179</ele>
        <time>2003-10-17T10:02:40Z</time>
      </trkpt>
      <trkpt lat="44.37485" lon="4.52598">
        <ele>377.356903</ele>
        <time>2003-10-17T10:02:53Z</time>
      </trkpt>
      <trkpt lat="44.37462" lon="4.52613">
        <ele>377.487885</ele>
        <time>2003-10-17T10:02:59Z</time>
      </trkpt>
      <trkpt lat="44.37436" lon="4.52652">
        <ele>379.863586</ele>
        <time>2003-10-17T10:03:09Z</time>
      </trkpt>
      <trkpt lat="44.37449" lon="4.52727">
        <ele>383.434998</ele>
        <time>2003-10-17T10:03:29Z</time>
      </trkpt>
      <trkpt lat="44.37468" lon="4.52772">
        <ele>384.591248</ele>
        <time>2003-10-17T10:03:44Z</time>
      </trkpt>
      <trkpt lat="44.37492" lon="4.52843">
        <ele>385.23999</ele>
        <time>2003-10-17T10:04:04Z</time>
      </trkpt>
      <trkpt lat="44.37552" lon="4.52901">
        <ele>386.600006</ele>
        <time>2003-10-17T10:04:26Z</time>
      </trkpt>
      <trkpt lat="44.37569" lon="4.53044">
        <ele>385.045013</ele>
        <time>2003-10-17T10:04:54Z</time>
      </trkpt>
      <trkpt lat="44.37569" lon="4.53072">
        <ele>385.057495</ele>
        <time>2003-10-17T10:05:01Z</time>
      </trkpt>
      <trkpt lat="44.37577" lon="4.53141">
        <ele>384.553741</ele>
        <time>2003-10-17T10:05:19Z</time>
      </trkpt>
      <trkpt lat="44.37569" lon="4.53105">
        <ele>384.922516</ele>
        <time>2003-10-17T10:05:30Z</time>
      </trkpt>
      <trkpt lat="44.37573" lon="4.53105">
        <ele>385.019989</ele>
        <time>2003-10-17T10:07:07Z</time>
      </trkpt>
      <trkpt lat="44.3759" lon="4.53255">
        <ele>384.086243</ele>
        <time>2003-10-17T10:08:42Z</time>
      </trkpt>
      <trkpt lat="44.37633" lon="4.53375">
        <ele>383.842041</ele>
        <time>2003-10-17T10:09:11Z</time>
      </trkpt>
      <trkpt lat="44.37687" lon="4.53433">
        <ele>383.688751</ele>
        <time>2003-10-17T10:09:32Z</time>
      </trkpt>
      <trkpt lat="44.37708" lon="4.53465">
        <ele>383.188751</ele>
        <time>2003-10-17T10:09:41Z</time>
      </trkpt>
      <trkpt lat="44.37706" lon="4.53551">
        <ele>382.877655</ele>
        <time>2003-10-17T10:09:59Z</time>
      </trkpt>
      <trkpt lat="44.37723" lon="4.53615">
        <ele>382.787354</ele>
        <time>2003-10-17T10:10:13Z</time>
      </trkpt>
      <trkpt lat="44.37747" lon="4.53772">
        <ele>381.871216</ele>
        <time>2003-10-17T10:10:44Z</time>
      </trkpt>
      <trkpt lat="44.37745" lon="4.53793">
        <ele>381.326935</ele>
        <time>2003-10-17T10:10:48Z</time>
      </trkpt>
      <trkpt lat="44.37764" lon="4.5386">
        <ele>377.032501</ele>
        <time>2003-10-17T10:11:00Z</time>
      </trkpt>
      <trkpt lat="44.37762" lon="4.53943">
        <ele>372.931549</ele>
        <time>2003-10-17T10:11:17Z</time>
      </trkpt>
      <trkpt lat="44.37766" lon="4.54036">
        <ele>368.263916</ele>
        <time>2003-10-17T10:11:35Z</time>
      </trkpt>
      <trkpt lat="44.37762" lon="4.54072">
        <ele>367.242859</ele>
        <time>2003-10-17T10:11:41Z</time>
      </trkpt>
      <trkpt lat="44.37768" lon="4.54141">
        <ele>366.945007</ele>
        <time>2003-10-17T10:11:50Z</time>
      </trkpt>
      <trkpt lat="44.37777" lon="4.5416">
        <ele>367.339996</ele>
        <time>2003-10-17T10:12:00Z</time>
      </trkpt>
      <trkpt lat="44.37786" lon="4.5416">
        <ele>367.725006</ele>
        <time>2003-10-17T10:12:11Z</time>
      </trkpt>
      <trkpt lat="44.37803" lon="4.54175">
        <ele>368.63562</ele>
        <time>2003-10-17T10:12:22Z</time>
      </trkpt>
      <trkpt lat="44.37801" lon="4.54207">
        <ele>369.452606</ele>
        <time>2003-10-17T10:12:35Z</time>
      </trkpt>
      <trkpt lat="44.3782" lon="4.54231">
        <ele>371.227509</ele>
        <time>2003-10-17T10:12:45Z</time>
      </trkpt>
      <trkpt lat="44.37816" lon="4.54244">
        <ele>371.309814</ele>
        <time>2003-10-17T10:12:50Z</time>
      </trkpt>
      <trkpt lat="44.3782" lon="4.5431">
        <ele>373.022491</ele>
        <time>2003-10-17T10:13:08Z</time>
      </trkpt>
      <trkpt lat="44.3785" lon="4.54366">
        <ele>376.839996</ele>
        <time>2003-10-17T10:13:24Z</time>
      </trkpt>
      <trkpt lat="44.37846" lon="4.54409">
        <ele>377.98999</ele>
        <time>2003-10-17T10:13:35Z</time>
      </trkpt>
      <trkpt lat="44.37897" lon="4.54624">
        <ele>381.049988</ele>
        <time>2003-10-17T10:14:18Z</time>
      </trkpt>
      <trkpt lat="44.37818" lon="4.54718">
        <ele>379.774994</ele>
        <time>2003-10-17T10:16:15Z</time>
      </trkpt>
      <trkpt lat="44.3773" lon="4.54802">
        <ele>381.046631</ele>
        <time>2003-10-17T10:16:41Z</time>
      </trkpt>
      <trkpt lat="44.37715" lon="4.54806">
        <ele>381.014832</ele>
        <time>2003-10-17T10:16:44Z</time>
      </trkpt>
      <trkpt lat="44.37663" lon="4.548">
        <ele>377.660248</ele>
        <time>2003-10-17T10:20:25Z</time>
      </trkpt>
      <trkpt lat="44.37657" lon="4.54868">
        <ele>375.789856</ele>
        <time>2003-10-17T10:20:42Z</time>
      </trkpt>
      <trkpt lat="44.37661" lon="4.54903">
        <ele>375.124542</ele>
        <time>2003-10-17T10:20:48Z</time>
      </trkpt>
      <trkpt lat="44.37698" lon="4.5498">
        <ele>376.673187</ele>
        <time>2003-10-17T10:21:04Z</time>
      </trkpt>
      <trkpt lat="44.37726" lon="4.54982">
        <ele>379.195007</ele>
        <time>2003-10-17T10:21:21Z</time>
      </trkpt>
      <trkpt lat="44.3782" lon="4.55034">
        <ele>383.389404</ele>
        <time>2003-10-17T10:22:06Z</time>
      </trkpt>
      <trkpt lat="44.37912" lon="4.55115">
        <ele>385.603027</ele>
        <time>2003-10-17T10:22:54Z</time>
      </trkpt>
      <trkpt lat="44.37974" lon="4.55141">
        <ele>387</ele>
        <time>2003-10-17T10:23:25Z</time>
      </trkpt>
      <trkpt lat="44.38142" lon="4.55233">
        <ele>391.494995</ele>
        <time>2003-10-17T10:25:21Z</time>
      </trkpt>
      <trkpt lat="44.38333" lon="4.55304">
        <ele>395.029663</ele>
        <time>2003-10-17T10:27:05Z</time>
      </trkpt>
      <trkpt lat="44.38483" lon="4.55349">
        <ele>396.512756</ele>
        <time>2003-10-17T10:28:21Z</time>
      </trkpt>
      <trkpt lat="44.38685" lon="4.55398">
        <ele>394.123749</ele>
        <time>2003-10-17T10:30:38Z</time>
      </trkpt>
      <trkpt lat="44.38824" lon="4.55426">
        <ele>387.34375</ele>
        <time>2003-10-17T10:31:10Z</time>
      </trkpt>
      <trkpt lat="44.38828" lon="4.55431">
        <ele>387.213745</ele>
        <time>2003-10-17T10:31:24Z</time>
      </trkpt>
      <trkpt lat="44.38839" lon="4.55682">
        <ele>387.065002</ele>
        <time>2003-10-17T10:32:20Z</time>
      </trkpt>
      <trkpt lat="44.38837" lon="4.56046">
        <ele>380.461243</ele>
        <time>2003-10-17T10:33:14Z</time>
      </trkpt>
      <trkpt lat="44.38831" lon="4.56184">
        <ele>376.042511</ele>
        <time>2003-10-17T10:33:29Z</time>
      </trkpt>
      <trkpt lat="44.38837" lon="4.56199">
        <ele>375.657501</ele>
        <time>2003-10-17T10:34:46Z</time>
      </trkpt>
      <trkpt lat="44.38846" lon="4.56199">
        <ele>375.470001</ele>
        <time>2003-10-17T10:40:12Z</time>
      </trkpt>
      <trkpt lat="44.38886" lon="4.56169">
        <ele>375.21524</ele>
        <time>2003-10-17T10:40:35Z</time>
      </trkpt>
      <trkpt lat="44.39015" lon="4.56089">
        <ele>376</ele>
        <time>2003-10-17T10:41:15Z</time>
      </trkpt>
      <trkpt lat="44.3912" lon="4.55986">
        <ele>376.126862</ele>
        <time>2003-10-17T10:41:42Z</time>
      </trkpt>
      <trkpt lat="44.39249" lon="4.55806">
        <ele>376.36499</ele>
        <time>2003-10-17T10:42:12Z</time>
      </trkpt>
      <trkpt lat="44.39275" lon="4.55785">
        <ele>376.150482</ele>
        <time>2003-10-17T10:42:18Z</time>
      </trkpt>
      <trkpt lat="44.39419" lon="4.55752">
        <ele>373.920197</ele>
        <time>2003-10-17T10:42:42Z</time>
      </trkpt>
      <trkpt lat="44.39457" lon="4.5575">
        <ele>373.647186</ele>
        <time>2003-10-17T10:42:53Z</time>
      </trkpt>
      <trkpt lat="44.39466" lon="4.55278">
        <ele>374</ele>
        <time>2003-10-17T10:55:27Z</time>
      </trkpt>
      <trkpt lat="44.39457" lon="4.5528">
        <ele>374</ele>
        <time>2003-10-17T10:55:30Z</time>
      </trkpt>
      <trkpt lat="44.39457" lon="4.55218">
        <ele>374.001678</ele>
        <time>2003-10-17T10:55:57Z</time>
      </trkpt>
      <trkpt lat="44.39451" lon="4.55111">
        <ele>373.185272</ele>
        <time>2003-10-17T10:56:19Z</time>
      </trkpt>
      <trkpt lat="44.39425" lon="4.54877">
        <ele>371.022491</ele>
        <time>2003-10-17T10:56:52Z</time>
      </trkpt>
      <trkpt lat="44.39397" lon="4.54718">
        <ele>369.976624</ele>
        <time>2003-10-17T10:57:11Z</time>
      </trkpt>
      <trkpt lat="44.39352" lon="4.54546">
        <ele>370.640015</ele>
        <time>2003-10-17T10:57:33Z</time>
      </trkpt>
      <trkpt lat="44.39165" lon="4.53933">
        <ele>376.531067</ele>
        <time>2003-10-17T10:58:55Z</time>
      </trkpt>
      <trkpt lat="44.39142" lon="4.53873">
        <ele>376.346252</ele>
        <time>2003-10-17T10:59:01Z</time>
      </trkpt>
      <trkpt lat="44.39088" lon="4.5369">
        <ele>375.674988</ele>
        <time>2003-10-17T10:59:24Z</time>
      </trkpt>
      <trkpt lat="44.39011" lon="4.53383">
        <ele>377.5802</ele>
        <time>2003-10-17T11:00:16Z</time>
      </trkpt>
      <trkpt lat="44.38882" lon="4.53268">
        <ele>383.022522</ele>
        <time>2003-10-17T11:00:25Z</time>
      </trkpt>
      <trkpt lat="44.38713" lon="4.52986">
        <ele>383.355042</ele>
        <time>2003-10-17T11:01:08Z</time>
      </trkpt>
      <trkpt lat="44.3868" lon="4.52926">
        <ele>383.915009</ele>
        <time>2003-10-17T11:01:17Z</time>
      </trkpt>
      <trkpt lat="44.3868" lon="4.52911">
        <ele>383.683746</ele>
        <time>2003-10-17T11:01:19Z</time>
      </trkpt>
      <trkpt lat="44.38702" lon="4.52847">
        <ele>380.72876</ele>
        <time>2003-10-17T11:01:27Z</time>
      </trkpt>
      <trkpt lat="44.38721" lon="4.52808">
        <ele>378.026245</ele>
        <time>2003-10-17T11:01:32Z</time>
      </trkpt>
      <trkpt lat="44.3874" lon="4.52742">
        <ele>374.008759</ele>
        <time>2003-10-17T11:01:39Z</time>
      </trkpt>
      <trkpt lat="44.38756" lon="4.5271">
        <ele>371.768311</ele>
        <time>2003-10-17T11:01:42Z</time>
      </trkpt>
      <trkpt lat="44.38775" lon="4.52652">
        <ele>369.002502</ele>
        <time>2003-10-17T11:01:47Z</time>
      </trkpt>
      <trkpt lat="44.38796" lon="4.52538">
        <ele>367.854065</ele>
        <time>2003-10-17T11:02:04Z</time>
      </trkpt>
      <trkpt lat="44.38809" lon="4.52512">
        <ele>367.678741</ele>
        <time>2003-10-17T11:02:18Z</time>
      </trkpt>
      <trkpt lat="44.38805" lon="4.52504">
        <ele>367.913757</ele>
        <time>2003-10-17T11:10:25Z</time>
      </trkpt>
      <trkpt lat="44.38813" lon="4.52366">
        <ele>368.81662</ele>
        <time>2003-10-17T11:10:54Z</time>
      </trkpt>
      <trkpt lat="44.38839" lon="4.52281">
        <ele>367.329987</ele>
        <time>2003-10-17T11:11:11Z</time>
      </trkpt>
      <trkpt lat="44.38835" lon="4.52169">
        <ele>364.401367</ele>
        <time>2003-10-17T11:11:29Z</time>
      </trkpt>
      <trkpt lat="44.38852" lon="4.52096">
        <ele>361.971252</ele>
        <time>2003-10-17T11:11:39Z</time>
      </trkpt>
      <trkpt lat="44.3891" lon="4.52047">
        <ele>361.095001</ele>
        <time>2003-10-17T11:11:48Z</time>
      </trkpt>
      <trkpt lat="44.38929" lon="4.52036">
        <ele>361.459991</ele>
        <time>2003-10-17T11:11:53Z</time>
      </trkpt>
      <trkpt lat="44.38957" lon="4.52006">
        <ele>362.902496</ele>
        <time>2003-10-17T11:12:06Z</time>
      </trkpt>
      <trkpt lat="44.38966" lon="4.51772">
        <ele>374.417511</ele>
        <time>2003-10-17T11:13:11Z</time>
      </trkpt>
      <trkpt lat="44.38974" lon="4.51684">
        <ele>378.678558</ele>
        <time>2003-10-17T11:13:34Z</time>
      </trkpt>
      <trkpt lat="44.38968" lon="4.51435">
        <ele>386.9534</ele>
        <time>2003-10-17T11:14:30Z</time>
      </trkpt>
      <trkpt lat="44.38983" lon="4.51429">
        <ele>387.314423</ele>
        <time>2003-10-17T11:14:34Z</time>
      </trkpt>
      <trkpt lat="44.39" lon="4.51405">
        <ele>387.944122</ele>
        <time>2003-10-17T11:14:40Z</time>
      </trkpt>
      <trkpt lat="44.39015" lon="4.51289">
        <ele>392.375</ele>
        <time>2003-10-17T11:14:53Z</time>
      </trkpt>
      <trkpt lat="44.39043" lon="4.51141">
        <ele>395.001617</ele>
        <time>2003-10-17T11:15:15Z</time>
      </trkpt>
      <trkpt lat="44.3911" lon="4.5109">
        <ele>392.702515</ele>
        <time>2003-10-17T11:15:35Z</time>
      </trkpt>
      <trkpt lat="44.39131" lon="4.5106">
        <ele>390.940216</ele>
        <time>2003-10-17T11:15:41Z</time>
      </trkpt>
      <trkpt lat="44.39148" lon="4.51006">
        <ele>388.907654</ele>
        <time>2003-10-17T11:15:48Z</time>
      </trkpt>
      <trkpt lat="44.39234" lon="4.50618">
        <ele>374.977203</ele>
        <time>2003-10-17T11:16:29Z</time>
      </trkpt>
      <trkpt lat="44.39255" lon="4.50538">
        <ele>371.869232</ele>
        <time>2003-10-17T11:16:36Z</time>
      </trkpt>
      <trkpt lat="44.39303" lon="4.50311">
        <ele>367.362335</ele>
        <time>2003-10-17T11:16:55Z</time>
      </trkpt>
      <trkpt lat="44.39399" lon="4.49772">
        <ele>369.398743</ele>
        <time>2003-10-17T11:40:24Z</time>
      </trkpt>
      <trkpt lat="44.39451" lon="4.49661">
        <ele>372.306244</ele>
        <time>2003-10-17T11:40:46Z</time>
      </trkpt>
      <trkpt lat="44.39472" lon="4.49521">
        <ele>373.927765</ele>
        <time>2003-10-17T11:41:06Z</time>
      </trkpt>
      <trkpt lat="44.39479" lon="4.49326">
        <ele>374.725006</ele>
        <time>2003-10-17T11:41:32Z</time>
      </trkpt>
      <trkpt lat="44.39513" lon="4.49085">
        <ele>374.976959</ele>
        <time>2003-10-17T11:42:01Z</time>
      </trkpt>
      <trkpt lat="44.3953" lon="4.48925">
        <ele>374.665009</ele>
        <time>2003-10-17T11:42:21Z</time>
      </trkpt>
      <trkpt lat="44.39513" lon="4.48888">
        <ele>373.869995</ele>
        <time>2003-10-17T11:42:26Z</time>
      </trkpt>
      <trkpt lat="44.39468" lon="4.48734">
        <ele>371.730011</ele>
        <time>2003-10-17T11:42:43Z</time>
      </trkpt>
      <trkpt lat="44.39436" lon="4.485">
        <ele>369.095001</ele>
        <time>2003-10-17T11:43:08Z</time>
      </trkpt>
      <trkpt lat="44.39425" lon="4.48465">
        <ele>368.589996</ele>
        <time>2003-10-17T11:43:12Z</time>
      </trkpt>
      <trkpt lat="44.39382" lon="4.48367">
        <ele>367.297485</ele>
        <time>2003-10-17T11:43:24Z</time>
      </trkpt>
      <trkpt lat="44.39356" lon="4.48242">
        <ele>368.175323</ele>
        <time>2003-10-17T11:43:39Z</time>
      </trkpt>
      <trkpt lat="44.39356" lon="4.4804">
        <ele>368.582489</ele>
        <time>2003-10-17T11:44:02Z</time>
      </trkpt>
      <trkpt lat="44.39371" lon="4.47777">
        <ele>360.675262</ele>
        <time>2003-10-17T11:44:29Z</time>
      </trkpt>
      <trkpt lat="44.39408" lon="4.47768">
        <ele>360.528351</ele>
        <time>2003-10-17T11:44:41Z</time>
      </trkpt>
      <trkpt lat="44.39457" lon="4.47766">
        <ele>363.783875</ele>
        <time>2003-10-17T11:44:50Z</time>
      </trkpt>
      <trkpt lat="44.39483" lon="4.47774">
        <ele>366.129639</ele>
        <time>2003-10-17T11:44:56Z</time>
      </trkpt>
      <trkpt lat="44.39524" lon="4.47723">
        <ele>367.752167</ele>
        <time>2003-10-17T11:45:16Z</time>
      </trkpt>
      <trkpt lat="44.39558" lon="4.47691">
        <ele>360.93924</ele>
        <time>2003-10-17T11:45:38Z</time>
      </trkpt>
      <trkpt lat="44.3968" lon="4.47789">
        <ele>354.433807</ele>
        <time>2003-10-17T11:46:21Z</time>
      </trkpt>
      <trkpt lat="44.397" lon="4.478">
        <ele>352.841278</ele>
        <time>2003-10-17T11:46:32Z</time>
      </trkpt>
      <trkpt lat="44.39695" lon="4.47798">
        <ele>353.308807</ele>
        <time>2003-10-17T11:46:39Z</time>
      </trkpt>
      <trkpt lat="44.3974" lon="4.47783">
        <ele>340.631714</ele>
        <time>2003-10-17T11:47:19Z</time>
      </trkpt>
      <trkpt lat="44.39775" lon="4.47789">
        <ele>339.273254</ele>
        <time>2003-10-17T11:47:40Z</time>
      </trkpt>
      <trkpt lat="44.39766" lon="4.47749">
        <ele>332.607727</ele>
        <time>2003-10-17T11:48:09Z</time>
      </trkpt>
      <trkpt lat="44.39768" lon="4.47723">
        <ele>328.080811</ele>
        <time>2003-10-17T11:48:14Z</time>
      </trkpt>
      <trkpt lat="44.39775" lon="4.47706">
        <ele>330.525757</ele>
        <time>2003-10-17T11:48:17Z</time>
      </trkpt>
      <trkpt lat="44.39775" lon="4.4768">
        <ele>333.19693</ele>
        <time>2003-10-17T11:49:05Z</time>
      </trkpt>
      <trkpt lat="44.3974" lon="4.47656">
        <ele>328.022278</ele>
        <time>2003-10-17T11:49:47Z</time>
      </trkpt>
      <trkpt lat="44.3973" lon="4.47644">
        <ele>327.870148</ele>
        <time>2003-10-17T11:50:06Z</time>
      </trkpt>
      <trkpt lat="44.39725" lon="4.47626">
        <ele>329.34845</ele>
        <time>2003-10-17T11:50:18Z</time>
      </trkpt>
      <trkpt lat="44.39708" lon="4.47601">
        <ele>328.667389</ele>
        <time>2003-10-17T11:50:47Z</time>
      </trkpt>
      <trkpt lat="44.39655" lon="4.47193">
        <ele>344.706573</ele>
        <time>2003-10-17T11:53:13Z</time>
      </trkpt>
      <trkpt lat="44.39663" lon="4.47092">
        <ele>352.765015</ele>
        <time>2003-10-17T11:53:36Z</time>
      </trkpt>
      <trkpt lat="44.39652" lon="4.46993">
        <ele>341.655945</ele>
        <time>2003-10-17T11:57:17Z</time>
      </trkpt>
      <trkpt lat="44.39672" lon="4.46974">
        <ele>344.422882</ele>
        <time>2003-10-17T11:57:24Z</time>
      </trkpt>
      <trkpt lat="44.39725" lon="4.46961">
        <ele>349.855591</ele>
        <time>2003-10-17T11:57:37Z</time>
      </trkpt>
      <trkpt lat="44.39766" lon="4.46959">
        <ele>352.866241</ele>
        <time>2003-10-17T11:57:47Z</time>
      </trkpt>
      <trkpt lat="44.39773" lon="4.46944">
        <ele>349.906189</ele>
        <time>2003-10-17T11:57:51Z</time>
      </trkpt>
      <trkpt lat="44.39768" lon="4.46923">
        <ele>344.921692</ele>
        <time>2003-10-17T11:58:35Z</time>
      </trkpt>
      <trkpt lat="44.3974" lon="4.4689">
        <ele>340.6875</ele>
        <time>2003-10-17T11:58:57Z</time>
      </trkpt>
      <trkpt lat="44.39678" lon="4.46794">
        <ele>333.359833</ele>
        <time>2003-10-17T11:59:39Z</time>
      </trkpt>
      <trkpt lat="44.39614" lon="4.46579">
        <ele>348.236115</ele>
        <time>2003-10-17T12:01:29Z</time>
      </trkpt>
      <trkpt lat="44.3959" lon="4.46483">
        <ele>355.505463</ele>
        <time>2003-10-17T12:02:09Z</time>
      </trkpt>
      <trkpt lat="44.39562" lon="4.46408">
        <ele>361.067169</ele>
        <time>2003-10-17T12:02:46Z</time>
      </trkpt>
      <trkpt lat="44.39532" lon="4.4635">
        <ele>361.631561</ele>
        <time>2003-10-17T12:03:49Z</time>
      </trkpt>
      <trkpt lat="44.39537" lon="4.46176">
        <ele>373.356049</ele>
        <time>2003-10-17T12:05:41Z</time>
      </trkpt>
      <trkpt lat="44.39629" lon="4.46026">
        <ele>383.532227</ele>
        <time>2003-10-17T12:07:13Z</time>
      </trkpt>
      <trkpt lat="44.397" lon="4.45948">
        <ele>377.268799</ele>
        <time>2003-10-17T12:07:46Z</time>
      </trkpt>
      <trkpt lat="44.39764" lon="4.4592">
        <ele>374.952515</ele>
        <time>2003-10-17T12:08:11Z</time>
      </trkpt>
      <trkpt lat="44.39766" lon="4.45888">
        <ele>371.41507</ele>
        <time>2003-10-17T12:08:19Z</time>
      </trkpt>
      <trkpt lat="44.39758" lon="4.45852">
        <ele>368.151001</ele>
        <time>2003-10-17T12:08:36Z</time>
      </trkpt>
      <trkpt lat="44.39824" lon="4.45766">
        <ele>390.779999</ele>
        <time>2003-10-17T12:09:24Z</time>
      </trkpt>
      <trkpt lat="44.39912" lon="4.45635">
        <ele>404.522491</ele>
        <time>2003-10-17T12:10:42Z</time>
      </trkpt>
      <trkpt lat="44.39914" lon="4.45639">
        <ele>404.482513</ele>
        <time>2003-10-17T12:11:30Z</time>
      </trkpt>
      <trkpt lat="44.39912" lon="4.45633">
        <ele>404.584991</ele>
        <time>2003-10-17T12:20:19Z</time>
      </trkpt>
      <trkpt lat="44.39968" lon="4.45468">
        <ele>409.13501</ele>
        <time>2003-10-17T12:21:09Z</time>
      </trkpt>
      <trkpt lat="44.40157" lon="4.45202">
        <ele>410.67276</ele>
        <time>2003-10-17T12:22:59Z</time>
      </trkpt>
      <trkpt lat="44.40212" lon="4.44721">
        <ele>420.592499</ele>
        <time>2003-10-17T12:24:49Z</time>
      </trkpt>
      <trkpt lat="44.40236" lon="4.44556">
        <ele>424.913147</ele>
        <time>2003-10-17T12:25:42Z</time>
      </trkpt>
      <trkpt lat="44.40296" lon="4.44457">
        <ele>423.700012</ele>
        <time>2003-10-17T12:26:17Z</time>
      </trkpt>
      <trkpt lat="44.4032" lon="4.4436">
        <ele>420.291595</ele>
        <time>2003-10-17T12:30:41Z</time>
      </trkpt>
      <trkpt lat="44.40406" lon="4.44242">
        <ele>414.080811</ele>
        <time>2003-10-17T12:31:02Z</time>
      </trkpt>
      <trkpt lat="44.40468" lon="4.44137">
        <ele>407.421753</ele>
        <time>2003-10-17T12:31:23Z</time>
      </trkpt>
      <trkpt lat="44.40474" lon="4.44092">
        <ele>405.774048</ele>
        <time>2003-10-17T12:39:29Z</time>
      </trkpt>
      <trkpt lat="44.40526" lon="4.44094">
        <ele>387.684113</ele>
        <time>2003-10-17T12:39:41Z</time>
      </trkpt>
      <trkpt lat="44.4053" lon="4.44082">
        <ele>386.437927</ele>
        <time>2003-10-17T12:39:45Z</time>
      </trkpt>
      <trkpt lat="44.40528" lon="4.44039">
        <ele>386.716064</ele>
        <time>2003-10-17T12:39:53Z</time>
      </trkpt>
      <trkpt lat="44.40521" lon="4.44021">
        <ele>385.956848</ele>
        <time>2003-10-17T12:39:57Z</time>
      </trkpt>
      <trkpt lat="44.40472" lon="4.43944">
        <ele>381.696259</ele>
        <time>2003-10-17T12:40:21Z</time>
      </trkpt>
      <trkpt lat="44.40438" lon="4.43824">
        <ele>364.337494</ele>
        <time>2003-10-17T12:40:48Z</time>
      </trkpt>
      <trkpt lat="44.40468" lon="4.43839">
        <ele>359.222931</ele>
        <time>2003-10-17T12:40:56Z</time>
      </trkpt>
      <trkpt lat="44.40474" lon="4.43837">
        <ele>356.92865</ele>
        <time>2003-10-17T12:40:59Z</time>
      </trkpt>
      <trkpt lat="44.40427" lon="4.43715">
        <ele>342.108948</ele>
        <time>2003-10-17T12:41:18Z</time>
      </trkpt>
      <trkpt lat="44.40429" lon="4.4371">
        <ele>340.522217</ele>
        <time>2003-10-17T12:41:22Z</time>
      </trkpt>
      <trkpt lat="44.40453" lon="4.43725">
        <ele>338.285126</ele>
        <time>2003-10-17T12:41:29Z</time>
      </trkpt>
      <trkpt lat="44.40431" lon="4.43676">
        <ele>331.422394</ele>
        <time>2003-10-17T12:41:41Z</time>
      </trkpt>
      <trkpt lat="44.40401" lon="4.43633">
        <ele>324.907501</ele>
        <time>2003-10-17T12:41:49Z</time>
      </trkpt>
      <trkpt lat="44.40354" lon="4.43582">
        <ele>317.994995</ele>
        <time>2003-10-17T12:42:00Z</time>
      </trkpt>
      <trkpt lat="44.40401" lon="4.43594">
        <ele>315.325073</ele>
        <time>2003-10-17T12:42:11Z</time>
      </trkpt>
      <trkpt lat="44.40399" lon="4.43582">
        <ele>313.102631</ele>
        <time>2003-10-17T12:42:17Z</time>
      </trkpt>
      <trkpt lat="44.4035" lon="4.43545">
        <ele>310.911255</ele>
        <time>2003-10-17T12:42:29Z</time>
      </trkpt>
      <trkpt lat="44.40399" lon="4.43552">
        <ele>307.337555</ele>
        <time>2003-10-17T12:42:40Z</time>
      </trkpt>
      <trkpt lat="44.40393" lon="4.4353">
        <ele>304.073761</ele>
        <time>2003-10-17T12:42:46Z</time>
      </trkpt>
      <trkpt lat="44.40313" lon="4.43429">
        <ele>297.654999</ele>
        <time>2003-10-17T12:43:05Z</time>
      </trkpt>
      <trkpt lat="44.40324" lon="4.43436">
        <ele>297.102509</ele>
        <time>2003-10-17T12:44:29Z</time>
      </trkpt>
      <trkpt lat="44.40361" lon="4.43408">
        <ele>289.502502</ele>
        <time>2003-10-17T12:44:38Z</time>
      </trkpt>
      <trkpt lat="44.40431" lon="4.43406">
        <ele>281.809998</ele>
        <time>2003-10-17T12:44:50Z</time>
      </trkpt>
      <trkpt lat="44.40438" lon="4.43296">
        <ele>271.487823</ele>
        <time>2003-10-17T12:45:04Z</time>
      </trkpt>
      <trkpt lat="44.40434" lon="4.43122">
        <ele>260.020996</ele>
        <time>2003-10-17T12:45:26Z</time>
      </trkpt>
      <trkpt lat="44.40414" lon="4.42899">
        <ele>259.257843</ele>
        <time>2003-10-17T12:45:58Z</time>
      </trkpt>
      <trkpt lat="44.40388" lon="4.42777">
        <ele>252.255737</ele>
        <time>2003-10-17T12:46:34Z</time>
      </trkpt>
      <trkpt lat="44.40393" lon="4.42736">
        <ele>251.343765</ele>
        <time>2003-10-17T12:50:54Z</time>
      </trkpt>
      <trkpt lat="44.4041" lon="4.42678">
        <ele>250.220139</ele>
        <time>2003-10-17T12:51:06Z</time>
      </trkpt>
      <trkpt lat="44.40401" lon="4.42663">
        <ele>249.475143</ele>
        <time>2003-10-17T12:51:18Z</time>
      </trkpt>
      <trkpt lat="44.40401" lon="4.42597">
        <ele>247.880753</ele>
        <time>2003-10-17T12:51:37Z</time>
      </trkpt>
      <trkpt lat="44.4041" lon="4.42562">
        <ele>246.226044</ele>
        <time>2003-10-17T12:51:55Z</time>
      </trkpt>
      <trkpt lat="44.40401" lon="4.42541">
        <ele>246.237305</ele>
        <time>2003-10-17T12:52:21Z</time>
      </trkpt>
      <trkpt lat="44.40414" lon="4.42562">
        <ele>245.909378</ele>
        <time>2003-10-17T12:53:02Z</time>
      </trkpt>
      <trkpt lat="44.40438" lon="4.42569">
        <ele>244.34671</ele>
        <time>2003-10-17T12:54:06Z</time>
      </trkpt>
      <trkpt lat="44.40438" lon="4.42547">
        <ele>243.073868</ele>
        <time>2003-10-17T12:54:11Z</time>
      </trkpt>
      <trkpt lat="44.40459" lon="4.42393">
        <ele>225.577347</ele>
        <time>2003-10-17T12:54:31Z</time>
      </trkpt>
      <trkpt lat="44.40451" lon="4.42365">
        <ele>223.611298</ele>
        <time>2003-10-17T12:54:41Z</time>
      </trkpt>
      <trkpt lat="44.40431" lon="4.42324">
        <ele>221.264999</ele>
        <time>2003-10-17T12:54:48Z</time>
      </trkpt>
      <trkpt lat="44.40414" lon="4.42305">
        <ele>220.338394</ele>
        <time>2003-10-17T12:54:54Z</time>
      </trkpt>
      <trkpt lat="44.40363" lon="4.42281">
        <ele>219.573257</ele>
        <time>2003-10-17T12:55:08Z</time>
      </trkpt>
      <trkpt lat="44.40331" lon="4.42275">
        <ele>218.268631</ele>
        <time>2003-10-17T12:55:17Z</time>
      </trkpt>
      <trkpt lat="44.40337" lon="4.4226">
        <ele>215.369125</ele>
        <time>2003-10-17T12:55:21Z</time>
      </trkpt>
      <trkpt lat="44.4038" lon="4.42204">
        <ele>207.722885</ele>
        <time>2003-10-17T12:55:30Z</time>
      </trkpt>
      <trkpt lat="44.40434" lon="4.42153">
        <ele>197.966751</ele>
        <time>2003-10-17T12:55:45Z</time>
      </trkpt>
      <trkpt lat="44.40489" lon="4.42245">
        <ele>203.984329</ele>
        <time>2003-10-17T12:56:05Z</time>
      </trkpt>
      <trkpt lat="44.40494" lon="4.42219">
        <ele>200.815857</ele>
        <time>2003-10-17T12:56:09Z</time>
      </trkpt>
      <trkpt lat="44.40487" lon="4.42148">
        <ele>192.231796</ele>
        <time>2003-10-17T12:56:17Z</time>
      </trkpt>
      <trkpt lat="44.40466" lon="4.4203">
        <ele>179.18663</ele>
        <time>2003-10-17T12:56:36Z</time>
      </trkpt>
      <trkpt lat="44.40408" lon="4.41798">
        <ele>148.048462</ele>
        <time>2003-10-17T12:58:36Z</time>
      </trkpt>
      <trkpt lat="44.40388" lon="4.41788">
        <ele>141.35437</ele>
        <time>2003-10-17T12:58:45Z</time>
      </trkpt>
      <trkpt lat="44.4035" lon="4.41788">
        <ele>142.036636</ele>
        <time>2003-10-17T12:58:53Z</time>
      </trkpt>
      <trkpt lat="44.403" lon="4.41852">
        <ele>151.098495</ele>
        <time>2003-10-17T12:59:03Z</time>
      </trkpt>
      <trkpt lat="44.40279" lon="4.41859">
        <ele>147.861252</ele>
        <time>2003-10-17T12:59:06Z</time>
      </trkpt>
      <trkpt lat="44.40221" lon="4.41837">
        <ele>133.293747</ele>
        <time>2003-10-17T12:59:13Z</time>
      </trkpt>
      <trkpt lat="44.40212" lon="4.41841">
        <ele>132.585587</ele>
        <time>2003-10-17T12:59:14Z</time>
      </trkpt>
      <trkpt lat="44.40193" lon="4.41867">
        <ele>134.340164</ele>
        <time>2003-10-17T12:59:17Z</time>
      </trkpt>
      <trkpt lat="44.40163" lon="4.41869">
        <ele>128.841614</ele>
        <time>2003-10-17T12:59:23Z</time>
      </trkpt>
      <trkpt lat="44.40204" lon="4.41828">
        <ele>128.308136</ele>
        <time>2003-10-17T12:59:29Z</time>
      </trkpt>
      <trkpt lat="44.40262" lon="4.41783">
        <ele>129.801407</ele>
        <time>2003-10-17T12:59:36Z</time>
      </trkpt>
      <trkpt lat="44.40309" lon="4.4171">
        <ele>121.208527</ele>
        <time>2003-10-17T12:59:43Z</time>
      </trkpt>
      <trkpt lat="44.40354" lon="4.41627">
        <ele>113.910225</ele>
        <time>2003-10-17T12:59:50Z</time>
      </trkpt>
      <trkpt lat="44.4041" lon="4.41584">
        <ele>109.412025</ele>
        <time>2003-10-17T12:59:56Z</time>
      </trkpt>
      <trkpt lat="44.40434" lon="4.41515">
        <ele>100.357018</ele>
        <time>2003-10-17T13:00:02Z</time>
      </trkpt>
      <trkpt lat="44.40371" lon="4.4135">
        <ele>113.728813</ele>
        <time>2003-10-17T13:00:22Z</time>
      </trkpt>
      <trkpt lat="44.40373" lon="4.41354">
        <ele>112.088058</ele>
        <time>2003-10-17T13:00:42Z</time>
      </trkpt>
      <trkpt lat="44.40356" lon="4.41386">
        <ele>105.31031</ele>
        <time>2003-10-17T13:00:52Z</time>
      </trkpt>
      <trkpt lat="44.40333" lon="4.41408">
        <ele>102.813126</ele>
        <time>2003-10-17T13:00:59Z</time>
      </trkpt>
      <trkpt lat="44.4035" lon="4.41404">
        <ele>100.967628</ele>
        <time>2003-10-17T13:01:07Z</time>
      </trkpt>
      <trkpt lat="44.40313" lon="4.41444">
        <ele>97.791687</ele>
        <time>2003-10-17T13:01:19Z</time>
      </trkpt>
      <trkpt lat="44.40238" lon="4.41502">
        <ele>92.282646</ele>
        <time>2003-10-17T13:01:42Z</time>
      </trkpt>
      <trkpt lat="44.40189" lon="4.415">
        <ele>95.061958</ele>
        <time>2003-10-17T13:01:56Z</time>
      </trkpt>
      <trkpt lat="44.40176" lon="4.41509">
        <ele>92.592377</ele>
        <time>2003-10-17T13:02:00Z</time>
      </trkpt>
      <trkpt lat="44.40084" lon="4.41539">
        <ele>92.879791</ele>
        <time>2003-10-17T13:02:20Z</time>
      </trkpt>
      <trkpt lat="44.40032" lon="4.41543">
        <ele>104.220856</ele>
        <time>2003-10-17T13:02:30Z</time>
      </trkpt>
      <trkpt lat="44.39981" lon="4.41571">
        <ele>108.700562</ele>
        <time>2003-10-17T13:02:46Z</time>
      </trkpt>
      <trkpt lat="44.39959" lon="4.41612">
        <ele>103.555405</ele>
        <time>2003-10-17T13:02:59Z</time>
      </trkpt>
      <trkpt lat="44.39891" lon="4.417">
        <ele>97.310966</ele>
        <time>2003-10-17T13:03:23Z</time>
      </trkpt>
      <trkpt lat="44.39818" lon="4.41745">
        <ele>95.237274</ele>
        <time>2003-10-17T13:03:49Z</time>
      </trkpt>
      <trkpt lat="44.39766" lon="4.41743">
        <ele>98.380547</ele>
        <time>2003-10-17T13:04:06Z</time>
      </trkpt>
      <trkpt lat="44.39764" lon="4.41725">
        <ele>97.997543</ele>
        <time>2003-10-17T13:04:10Z</time>
      </trkpt>
      <trkpt lat="44.39715" lon="4.41618">
        <ele>92.490501</ele>
        <time>2003-10-17T13:04:42Z</time>
      </trkpt>
      <trkpt lat="44.39693" lon="4.41509">
        <ele>94.946663</ele>
        <time>2003-10-17T13:05:13Z</time>
      </trkpt>
      <trkpt lat="44.39698" lon="4.41412">
        <ele>98.26329</ele>
        <time>2003-10-17T13:05:56Z</time>
      </trkpt>
      <trkpt lat="44.39695" lon="4.41393">
        <ele>98.433311</ele>
        <time>2003-10-17T13:06:13Z</time>
      </trkpt>
      <trkpt lat="44.39687" lon="4.41393">
        <ele>95.846115</ele>
        <time>2003-10-17T13:06:34Z</time>
      </trkpt>
      <trkpt lat="44.39687" lon="4.41344">
        <ele>96.708527</ele>
        <time>2003-10-17T13:07:01Z</time>
      </trkpt>
      <trkpt lat="44.39682" lon="4.41311">
        <ele>95.269997</ele>
        <time>2003-10-17T13:07:08Z</time>
      </trkpt>
      <trkpt lat="44.39706" lon="4.4114">
        <ele>97.511436</ele>
        <time>2003-10-17T13:07:51Z</time>
      </trkpt>
      <trkpt lat="44.39764" lon="4.41007">
        <ele>106.271248</ele>
        <time>2003-10-17T13:08:24Z</time>
      </trkpt>
      <trkpt lat="44.39781" lon="4.40841">
        <ele>107.096184</ele>
        <time>2003-10-17T13:08:51Z</time>
      </trkpt>
      <trkpt lat="44.3979" lon="4.40698">
        <ele>109.559151</ele>
        <time>2003-10-17T13:09:29Z</time>
      </trkpt>
      <trkpt lat="44.39843" lon="4.40543">
        <ele>113.464424</ele>
        <time>2003-10-17T13:10:18Z</time>
      </trkpt>
      <trkpt lat="44.39863" lon="4.40451">
        <ele>107.463249</ele>
        <time>2003-10-17T13:10:35Z</time>
      </trkpt>
      <trkpt lat="44.39931" lon="4.40296">
        <ele>106.839844</ele>
        <time>2003-10-17T13:11:01Z</time>
      </trkpt>
      <trkpt lat="44.39959" lon="4.40193">
        <ele>114.20945</ele>
        <time>2003-10-17T13:11:28Z</time>
      </trkpt>
      <trkpt lat="44.39968" lon="4.40088">
        <ele>123.52916</ele>
        <time>2003-10-17T13:12:18Z</time>
      </trkpt>
      <trkpt lat="44.3994" lon="4.40022">
        <ele>117.221939</ele>
        <time>2003-10-17T13:12:55Z</time>
      </trkpt>
      <trkpt lat="44.39934" lon="4.39979">
        <ele>115.124847</ele>
        <time>2003-10-17T13:13:05Z</time>
      </trkpt>
      <trkpt lat="44.39936" lon="4.39807">
        <ele>112.936516</ele>
        <time>2003-10-17T13:13:22Z</time>
      </trkpt>
      <trkpt lat="44.39925" lon="4.39653">
        <ele>100.935501</ele>
        <time>2003-10-17T13:13:44Z</time>
      </trkpt>
      <trkpt lat="44.39901" lon="4.39608">
        <ele>97.753822</ele>
        <time>2003-10-17T13:14:09Z</time>
      </trkpt>
      <trkpt lat="44.39899" lon="4.3959">
        <ele>97.34436</ele>
        <time>2003-10-17T13:14:13Z</time>
      </trkpt>
      <trkpt lat="44.39891" lon="4.39575">
        <ele>97.053436</ele>
        <time>2003-10-17T13:14:21Z</time>
      </trkpt>
      <trkpt lat="44.39865" lon="4.39554">
        <ele>96.736252</ele>
        <time>2003-10-17T13:14:36Z</time>
      </trkpt>
      <trkpt lat="44.39865" lon="4.39479">
        <ele>96</ele>
        <time>2003-10-17T13:14:52Z</time>
      </trkpt>
      <trkpt lat="44.3991" lon="4.39069">
        <ele>97.073952</ele>
        <time>2003-10-17T13:15:56Z</time>
      </trkpt>
      <trkpt lat="44.39921" lon="4.39015">
        <ele>97.540863</ele>
        <time>2003-10-17T13:16:10Z</time>
      </trkpt>
      <trkpt lat="44.39942" lon="4.38951">
        <ele>99.400002</ele>
        <time>2003-10-17T13:16:28Z</time>
      </trkpt>
      <trkpt lat="44.39983" lon="4.38861">
        <ele>105.339149</ele>
        <time>2003-10-17T13:16:52Z</time>
      </trkpt>
      <trkpt lat="44.40047" lon="4.38766">
        <ele>112.922501</ele>
        <time>2003-10-17T14:03:31Z</time>
      </trkpt>
      <trkpt lat="44.40015" lon="4.38739">
        <ele>111.703682</ele>
        <time>2003-10-17T14:03:38Z</time>
      </trkpt>
      <trkpt lat="44.39753" lon="4.38279">
        <ele>93.873016</ele>
        <time>2003-10-17T14:04:45Z</time>
      </trkpt>
      <trkpt lat="44.39743" lon="4.38249">
        <ele>93.999886</ele>
        <time>2003-10-17T14:04:48Z</time>
      </trkpt>
      <trkpt lat="44.39648" lon="4.3811">
        <ele>96</ele>
        <time>2003-10-17T14:05:10Z</time>
      </trkpt>
      <trkpt lat="44.39515" lon="4.37874">
        <ele>98.51664</ele>
        <time>2003-10-17T14:05:54Z</time>
      </trkpt>
      <trkpt lat="44.39476" lon="4.37885">
        <ele>97.66925</ele>
        <time>2003-10-17T14:06:05Z</time>
      </trkpt>
      <trkpt lat="44.39371" lon="4.37927">
        <ele>99.916252</ele>
        <time>2003-10-17T14:06:27Z</time>
      </trkpt>
      <trkpt lat="44.39275" lon="4.37975">
        <ele>112.871346</ele>
        <time>2003-10-17T14:06:49Z</time>
      </trkpt>
      <trkpt lat="44.39335" lon="4.37998">
        <ele>105.190002</ele>
        <time>2003-10-17T14:06:55Z</time>
      </trkpt>
      <trkpt lat="44.39326" lon="4.38018">
        <ele>106.597504</ele>
        <time>2003-10-17T14:07:01Z</time>
      </trkpt>
      <trkpt lat="44.39324" lon="4.38076">
        <ele>107.013885</ele>
        <time>2003-10-17T14:07:18Z</time>
      </trkpt>
      <trkpt lat="44.39311" lon="4.38067">
        <ele>108.699112</ele>
        <time>2003-10-17T14:07:28Z</time>
      </trkpt>
      <trkpt lat="44.39286" lon="4.38061">
        <ele>112.466904</ele>
        <time>2003-10-17T14:07:41Z</time>
      </trkpt>
      <trkpt lat="44.39273" lon="4.38026">
        <ele>114.289246</ele>
        <time>2003-10-17T14:07:55Z</time>
      </trkpt>
      <trkpt lat="44.39236" lon="4.38007">
        <ele>119.87394</ele>
        <time>2003-10-17T14:08:23Z</time>
      </trkpt>
      <trkpt lat="44.39221" lon="4.37992">
        <ele>122.481827</ele>
        <time>2003-10-17T14:08:41Z</time>
      </trkpt>
      <trkpt lat="44.39213" lon="4.37975">
        <ele>123.933144</ele>
        <time>2003-10-17T14:09:04Z</time>
      </trkpt>
      <trkpt lat="44.39193" lon="4.37968">
        <ele>127.629898</ele>
        <time>2003-10-17T14:09:40Z</time>
      </trkpt>
      <trkpt lat="44.39191" lon="4.37953">
        <ele>127.671951</ele>
        <time>2003-10-17T14:10:19Z</time>
      </trkpt>
      <trkpt lat="44.3914" lon="4.37927">
        <ele>135.620087</ele>
        <time>2003-10-17T14:11:29Z</time>
      </trkpt>
      <trkpt lat="44.39118" lon="4.3791">
        <ele>137.859589</ele>
        <time>2003-10-17T14:11:42Z</time>
      </trkpt>
      <trkpt lat="44.39116" lon="4.37973">
        <ele>143.0849</ele>
        <time>2003-10-17T14:12:01Z</time>
      </trkpt>
      <trkpt lat="44.39131" lon="4.3805">
        <ele>144.680939</ele>
        <time>2003-10-17T14:12:16Z</time>
      </trkpt>
      <trkpt lat="44.39137" lon="4.38118">
        <ele>146.894318</ele>
        <time>2003-10-17T14:12:35Z</time>
      </trkpt>
      <trkpt lat="44.39127" lon="4.38146">
        <ele>149.325623</ele>
        <time>2003-10-17T14:12:48Z</time>
      </trkpt>
      <trkpt lat="44.3909" lon="4.3817">
        <ele>155.926117</ele>
        <time>2003-10-17T14:13:15Z</time>
      </trkpt>
      <trkpt lat="44.39067" lon="4.38179">
        <ele>160.166748</ele>
        <time>2003-10-17T14:13:30Z</time>
      </trkpt>
      <trkpt lat="44.38972" lon="4.38118">
        <ele>170.647095</ele>
        <time>2003-10-17T14:14:23Z</time>
      </trkpt>
      <trkpt lat="44.38931" lon="4.38112">
        <ele>171.896698</ele>
        <time>2003-10-17T14:14:45Z</time>
      </trkpt>
      <trkpt lat="44.38889" lon="4.38114">
        <ele>170.541122</ele>
        <time>2003-10-17T14:15:14Z</time>
      </trkpt>
      <trkpt lat="44.38859" lon="4.38101">
        <ele>168.607941</ele>
        <time>2003-10-17T14:15:23Z</time>
      </trkpt>
      <trkpt lat="44.38762" lon="4.38078">
        <ele>165.841827</ele>
        <time>2003-10-17T14:15:42Z</time>
      </trkpt>
      <trkpt lat="44.38655" lon="4.38013">
        <ele>168.668808</ele>
        <time>2003-10-17T14:16:10Z</time>
      </trkpt>
      <trkpt lat="44.38586" lon="4.3794">
        <ele>169.638748</ele>
        <time>2003-10-17T14:16:36Z</time>
      </trkpt>
      <trkpt lat="44.38535" lon="4.37861">
        <ele>168.582153</ele>
        <time>2003-10-17T14:16:54Z</time>
      </trkpt>
      <trkpt lat="44.38511" lon="4.37814">
        <ele>168.113754</ele>
        <time>2003-10-17T14:17:04Z</time>
      </trkpt>
      <trkpt lat="44.38455" lon="4.37762">
        <ele>166.733154</ele>
        <time>2003-10-17T14:17:16Z</time>
      </trkpt>
      <trkpt lat="44.38429" lon="4.37745">
        <ele>164.879623</ele>
        <time>2003-10-17T14:17:20Z</time>
      </trkpt>
      <trkpt lat="44.38331" lon="4.37657">
        <ele>160.683121</ele>
        <time>2003-10-17T14:17:37Z</time>
      </trkpt>
      <trkpt lat="44.3832" lon="4.37625">
        <ele>160.482803</ele>
        <time>2003-10-17T14:17:42Z</time>
      </trkpt>
      <trkpt lat="44.38281" lon="4.3755">
        <ele>160.100998</ele>
        <time>2003-10-17T14:17:54Z</time>
      </trkpt>
      <trkpt lat="44.38249" lon="4.37528">
        <ele>160.685349</ele>
        <time>2003-10-17T14:18:02Z</time>
      </trkpt>
      <trkpt lat="44.3817" lon="4.37462">
        <ele>161.634995</ele>
        <time>2003-10-17T14:18:29Z</time>
      </trkpt>
      <trkpt lat="44.38138" lon="4.37505">
        <ele>160.933685</ele>
        <time>2003-10-17T14:18:47Z</time>
      </trkpt>
      <trkpt lat="44.38116" lon="4.37503">
        <ele>160.953751</ele>
        <time>2003-10-17T14:18:53Z</time>
      </trkpt>
      <trkpt lat="44.38082" lon="4.37485">
        <ele>160.977493</ele>
        <time>2003-10-17T14:19:01Z</time>
      </trkpt>
      <trkpt lat="44.3803" lon="4.3744">
        <ele>160.542236</ele>
        <time>2003-10-17T14:19:14Z</time>
      </trkpt>
      <trkpt lat="44.38004" lon="4.37464">
        <ele>160.021515</ele>
        <time>2003-10-17T14:19:20Z</time>
      </trkpt>
      <trkpt lat="44.37987" lon="4.37488">
        <ele>159.960403</ele>
        <time>2003-10-17T14:19:24Z</time>
      </trkpt>
      <trkpt lat="44.37979" lon="4.37526">
        <ele>160</ele>
        <time>2003-10-17T14:19:31Z</time>
      </trkpt>
      <trkpt lat="44.3797" lon="4.37539">
        <ele>160</ele>
        <time>2003-10-17T14:19:35Z</time>
      </trkpt>
      <trkpt lat="44.3791" lon="4.37582">
        <ele>161.010727</ele>
        <time>2003-10-17T14:19:56Z</time>
      </trkpt>
      <trkpt lat="44.37869" lon="4.37627">
        <ele>162.962494</ele>
        <time>2003-10-17T14:20:18Z</time>
      </trkpt>
      <trkpt lat="44.37829" lon="4.37599">
        <ele>164.376251</ele>
        <time>2003-10-17T14:20:33Z</time>
      </trkpt>
      <trkpt lat="44.37768" lon="4.37535">
        <ele>167.110001</ele>
        <time>2003-10-17T14:20:53Z</time>
      </trkpt>
      <trkpt lat="44.37661" lon="4.37488">
        <ele>173.14563</ele>
        <time>2003-10-17T14:21:30Z</time>
      </trkpt>
      <trkpt lat="44.37616" lon="4.37425">
        <ele>176.077728</ele>
        <time>2003-10-17T14:21:54Z</time>
      </trkpt>
      <trkpt lat="44.37599" lon="4.37419">
        <ele>177.96257</ele>
        <time>2003-10-17T14:22:05Z</time>
      </trkpt>
      <trkpt lat="44.37593" lon="4.37434">
        <ele>178.585648</ele>
        <time>2003-10-17T14:22:15Z</time>
      </trkpt>
      <trkpt lat="44.37575" lon="4.37451">
        <ele>180.561615</ele>
        <time>2003-10-17T14:22:30Z</time>
      </trkpt>
      <trkpt lat="44.37509" lon="4.37438">
        <ele>187.786133</ele>
        <time>2003-10-17T14:23:08Z</time>
      </trkpt>
      <trkpt lat="44.37474" lon="4.3747">
        <ele>193.534409</ele>
        <time>2003-10-17T14:23:34Z</time>
      </trkpt>
      <trkpt lat="44.37444" lon="4.37513">
        <ele>198.423157</ele>
        <time>2003-10-17T14:24:17Z</time>
      </trkpt>
      <trkpt lat="44.37447" lon="4.37511">
        <ele>198.208313</ele>
        <time>2003-10-17T14:24:37Z</time>
      </trkpt>
      <trkpt lat="44.37432" lon="4.37539">
        <ele>199.777618</ele>
        <time>2003-10-17T14:25:25Z</time>
      </trkpt>
      <trkpt lat="44.37378" lon="4.37586">
        <ele>203.711792</ele>
        <time>2003-10-17T14:26:18Z</time>
      </trkpt>
      <trkpt lat="44.37346" lon="4.37625">
        <ele>204.847</ele>
        <time>2003-10-17T14:27:22Z</time>
      </trkpt>
      <trkpt lat="44.37361" lon="4.37625">
        <ele>205.119095</ele>
        <time>2003-10-17T14:32:12Z</time>
      </trkpt>
      <trkpt lat="44.37335" lon="4.37668">
        <ele>205.747498</ele>
        <time>2003-10-17T14:32:31Z</time>
      </trkpt>
      <trkpt lat="44.37286" lon="4.37732">
        <ele>206.544998</ele>
        <time>2003-10-17T14:32:48Z</time>
      </trkpt>
      <trkpt lat="44.37234" lon="4.3785">
        <ele>210.292496</ele>
        <time>2003-10-17T14:33:24Z</time>
      </trkpt>
      <trkpt lat="44.37191" lon="4.3791">
        <ele>215.116257</ele>
        <time>2003-10-17T14:33:59Z</time>
      </trkpt>
      <trkpt lat="44.37174" lon="4.37919">
        <ele>217.067505</ele>
        <time>2003-10-17T14:34:17Z</time>
      </trkpt>
      <trkpt lat="44.37163" lon="4.3799">
        <ele>224.147095</ele>
        <time>2003-10-17T14:35:25Z</time>
      </trkpt>
      <trkpt lat="44.3715" lon="4.3802">
        <ele>228.202255</ele>
        <time>2003-10-17T14:35:54Z</time>
      </trkpt>
      <trkpt lat="44.37108" lon="4.38061">
        <ele>235.257309</ele>
        <time>2003-10-17T14:36:35Z</time>
      </trkpt>
      <trkpt lat="44.36951" lon="4.38093">
        <ele>241.770767</ele>
        <time>2003-10-17T14:38:11Z</time>
      </trkpt>
      <trkpt lat="44.36929" lon="4.38084">
        <ele>240.797256</ele>
        <time>2003-10-17T14:38:27Z</time>
      </trkpt>
      <trkpt lat="44.36932" lon="4.38071">
        <ele>240.880005</ele>
        <time>2003-10-17T14:39:11Z</time>
      </trkpt>
      <trkpt lat="44.36919" lon="4.37951">
        <ele>238.069138</ele>
        <time>2003-10-17T14:39:41Z</time>
      </trkpt>
      <trkpt lat="44.36919" lon="4.37912">
        <ele>236.680191</ele>
        <time>2003-10-17T14:39:50Z</time>
      </trkpt>
      <trkpt lat="44.3691" lon="4.37895">
        <ele>235.677505</ele>
        <time>2003-10-17T14:39:54Z</time>
      </trkpt>
      <trkpt lat="44.36899" lon="4.37885">
        <ele>234.35434</ele>
        <time>2003-10-17T14:39:57Z</time>
      </trkpt>
      <trkpt lat="44.36869" lon="4.37835">
        <ele>230.036255</ele>
        <time>2003-10-17T14:40:08Z</time>
      </trkpt>
      <trkpt lat="44.36867" lon="4.37822">
        <ele>228.970657</ele>
        <time>2003-10-17T14:40:10Z</time>
      </trkpt>
      <trkpt lat="44.36872" lon="4.37784">
        <ele>226.193863</ele>
        <time>2003-10-17T14:40:15Z</time>
      </trkpt>
      <trkpt lat="44.36872" lon="4.37709">
        <ele>219.288116</ele>
        <time>2003-10-17T14:40:26Z</time>
      </trkpt>
      <trkpt lat="44.36867" lon="4.37702">
        <ele>218.604858</ele>
        <time>2003-10-17T14:40:28Z</time>
      </trkpt>
      <trkpt lat="44.36822" lon="4.37726">
        <ele>220.127747</ele>
        <time>2003-10-17T14:40:59Z</time>
      </trkpt>
      <trkpt lat="44.3682" lon="4.37713">
        <ele>219.315933</ele>
        <time>2003-10-17T14:41:28Z</time>
      </trkpt>
      <trkpt lat="44.36824" lon="4.37687">
        <ele>217.381363</ele>
        <time>2003-10-17T14:41:49Z</time>
      </trkpt>
      <trkpt lat="44.36816" lon="4.37627">
        <ele>212.390396</ele>
        <time>2003-10-17T14:42:22Z</time>
      </trkpt>
      <trkpt lat="44.3682" lon="4.37584">
        <ele>208.267273</ele>
        <time>2003-10-17T14:42:41Z</time>
      </trkpt>
      <trkpt lat="44.36816" lon="4.37569">
        <ele>207.316254</ele>
        <time>2003-10-17T14:43:17Z</time>
      </trkpt>
      <trkpt lat="44.36796" lon="4.37561">
        <ele>207.988754</ele>
        <time>2003-10-17T14:43:27Z</time>
      </trkpt>
      <trkpt lat="44.36788" lon="4.37569">
        <ele>209.257507</ele>
        <time>2003-10-17T14:43:32Z</time>
      </trkpt>
      <trkpt lat="44.36781" lon="4.37586">
        <ele>211.035004</ele>
        <time>2003-10-17T14:43:41Z</time>
      </trkpt>
      <trkpt lat="44.36771" lon="4.37593">
        <ele>212.212067</ele>
        <time>2003-10-17T14:44:12Z</time>
      </trkpt>
      <trkpt lat="44.36766" lon="4.37711">
        <ele>218.361298</ele>
        <time>2003-10-17T14:44:51Z</time>
      </trkpt>
      <trkpt lat="44.36741" lon="4.37771">
        <ele>217.272522</ele>
        <time>2003-10-17T14:45:12Z</time>
      </trkpt>
      <trkpt lat="44.36702" lon="4.37807">
        <ele>218.369339</ele>
        <time>2003-10-17T14:45:28Z</time>
      </trkpt>
      <trkpt lat="44.36642" lon="4.37827">
        <ele>220.53096</ele>
        <time>2003-10-17T14:45:52Z</time>
      </trkpt>
      <trkpt lat="44.3658" lon="4.37829">
        <ele>226.073746</ele>
        <time>2003-10-17T14:46:14Z</time>
      </trkpt>
      <trkpt lat="44.36502" lon="4.37822">
        <ele>231.485001</ele>
        <time>2003-10-17T14:46:41Z</time>
      </trkpt>
      <trkpt lat="44.3643" lon="4.37824">
        <ele>233.977493</ele>
        <time>2003-10-17T14:47:06Z</time>
      </trkpt>
      <trkpt lat="44.36367" lon="4.37801">
        <ele>233.444031</ele>
        <time>2003-10-17T14:47:25Z</time>
      </trkpt>
      <trkpt lat="44.36245" lon="4.37743">
        <ele>229.952499</ele>
        <time>2003-10-17T14:48:00Z</time>
      </trkpt>
      <trkpt lat="44.36189" lon="4.37752">
        <ele>227.727493</ele>
        <time>2003-10-17T14:48:15Z</time>
      </trkpt>
      <trkpt lat="44.36108" lon="4.37745">
        <ele>224.985001</ele>
        <time>2003-10-17T14:48:37Z</time>
      </trkpt>
      <trkpt lat="44.35921" lon="4.37689">
        <ele>222.712631</ele>
        <time>2003-10-17T14:49:37Z</time>
      </trkpt>
      <trkpt lat="44.35906" lon="4.37681">
        <ele>222.764938</ele>
        <time>2003-10-17T14:49:40Z</time>
      </trkpt>
      <trkpt lat="44.35822" lon="4.37661">
        <ele>220.123749</ele>
        <time>2003-10-17T14:50:00Z</time>
      </trkpt>
      <trkpt lat="44.35824" lon="4.37634">
        <ele>218.934998</ele>
        <time>2003-10-17T14:50:06Z</time>
      </trkpt>
      <trkpt lat="44.35846" lon="4.37554">
        <ele>215.860016</ele>
        <time>2003-10-17T14:50:23Z</time>
      </trkpt>
      <trkpt lat="44.35803" lon="4.37558">
        <ele>213.876541</ele>
        <time>2003-10-17T14:50:58Z</time>
      </trkpt>
      <trkpt lat="44.35801" lon="4.37552">
        <ele>213.527634</ele>
        <time>2003-10-17T14:53:35Z</time>
      </trkpt>
      <trkpt lat="44.35734" lon="4.3761">
        <ele>211.920654</ele>
        <time>2003-10-17T14:54:00Z</time>
      </trkpt>
      <trkpt lat="44.35689" lon="4.37687">
        <ele>212.301849</ele>
        <time>2003-10-17T14:54:15Z</time>
      </trkpt>
      <trkpt lat="44.35623" lon="4.37829">
        <ele>212.324234</ele>
        <time>2003-10-17T14:54:34Z</time>
      </trkpt>
      <trkpt lat="44.35552" lon="4.38078">
        <ele>213.16217</ele>
        <time>2003-10-17T14:55:12Z</time>
      </trkpt>
      <trkpt lat="44.3555" lon="4.38239">
        <ele>214</ele>
        <time>2003-10-17T14:55:54Z</time>
      </trkpt>
      <trkpt lat="44.35554" lon="4.38245">
        <ele>214</ele>
        <time>2003-10-17T14:56:36Z</time>
      </trkpt>
      <trkpt lat="44.3555" lon="4.38294">
        <ele>214.029694</ele>
        <time>2003-10-17T14:56:49Z</time>
      </trkpt>
      <trkpt lat="44.35545" lon="4.38749">
        <ele>216.040466</ele>
        <time>2003-10-17T14:58:13Z</time>
      </trkpt>
      <trkpt lat="44.3553" lon="4.38829">
        <ele>216.81398</ele>
        <time>2003-10-17T14:58:25Z</time>
      </trkpt>
      <trkpt lat="44.35477" lon="4.38964">
        <ele>217.535004</ele>
        <time>2003-10-17T14:58:48Z</time>
      </trkpt>
      <trkpt lat="44.35449" lon="4.39063">
        <ele>218.176086</ele>
        <time>2003-10-17T14:59:02Z</time>
      </trkpt>
      <trkpt lat="44.35376" lon="4.39191">
        <ele>219</ele>
        <time>2003-10-17T14:59:25Z</time>
      </trkpt>
      <trkpt lat="44.35211" lon="4.39457">
        <ele>218.684219</ele>
        <time>2003-10-17T15:00:23Z</time>
      </trkpt>
      <trkpt lat="44.35185" lon="4.39548">
        <ele>221.035172</ele>
        <time>2003-10-17T15:00:41Z</time>
      </trkpt>
      <trkpt lat="44.35159" lon="4.39769">
        <ele>234.559998</ele>
        <time>2003-10-17T15:01:23Z</time>
      </trkpt>
      <trkpt lat="44.35133" lon="4.39949">
        <ele>237.485001</ele>
        <time>2003-10-17T15:01:58Z</time>
      </trkpt>
      <trkpt lat="44.3517" lon="4.40007">
        <ele>239</ele>
        <time>2003-10-17T15:02:11Z</time>
      </trkpt>
      <trkpt lat="44.35148" lon="4.40048">
        <ele>239.466263</ele>
        <time>2003-10-17T15:02:23Z</time>
      </trkpt>
      <trkpt lat="44.35114" lon="4.40095">
        <ele>241.156097</ele>
        <time>2003-10-17T15:02:39Z</time>
      </trkpt>
      <trkpt lat="44.35058" lon="4.40153">
        <ele>243.551819</ele>
        <time>2003-10-17T15:03:02Z</time>
      </trkpt>
      <trkpt lat="44.35058" lon="4.40174">
        <ele>247.097565</ele>
        <time>2003-10-17T15:03:07Z</time>
      </trkpt>
      <trkpt lat="44.3508" lon="4.40215">
        <ele>252.420197</ele>
        <time>2003-10-17T15:03:20Z</time>
      </trkpt>
      <trkpt lat="44.35095" lon="4.40273">
        <ele>252.79425</ele>
        <time>2003-10-17T15:07:48Z</time>
      </trkpt>
      <trkpt lat="44.35099" lon="4.40329">
        <ele>251.393494</ele>
        <time>2003-10-17T15:08:34Z</time>
      </trkpt>
      <trkpt lat="44.35112" lon="4.40367">
        <ele>249.57254</ele>
        <time>2003-10-17T15:08:39Z</time>
      </trkpt>
      <trkpt lat="44.35155" lon="4.40436">
        <ele>241.414902</ele>
        <time>2003-10-17T15:08:47Z</time>
      </trkpt>
      <trkpt lat="44.35176" lon="4.40505">
        <ele>240.05162</ele>
        <time>2003-10-17T15:08:53Z</time>
      </trkpt>
      <trkpt lat="44.35204" lon="4.40522">
        <ele>239.895142</ele>
        <time>2003-10-17T15:08:57Z</time>
      </trkpt>
      <trkpt lat="44.35224" lon="4.40526">
        <ele>239.97258</ele>
        <time>2003-10-17T15:09:00Z</time>
      </trkpt>
      <trkpt lat="44.35241" lon="4.40543">
        <ele>240</ele>
        <time>2003-10-17T15:09:04Z</time>
      </trkpt>
      <trkpt lat="44.35269" lon="4.40668">
        <ele>240.809189</ele>
        <time>2003-10-17T15:09:22Z</time>
      </trkpt>
      <trkpt lat="44.35275" lon="4.40734">
        <ele>242.472504</ele>
        <time>2003-10-17T15:09:34Z</time>
      </trkpt>
      <trkpt lat="44.35412" lon="4.40779">
        <ele>248.502502</ele>
        <time>2003-10-17T15:10:28Z</time>
      </trkpt>
      <trkpt lat="44.35475" lon="4.40833">
        <ele>253.138748</ele>
        <time>2003-10-17T15:11:05Z</time>
      </trkpt>
      <trkpt lat="44.35507" lon="4.40854">
        <ele>257.571442</ele>
        <time>2003-10-17T15:11:40Z</time>
      </trkpt>
      <trkpt lat="44.35509" lon="4.40871">
        <ele>258.187408</ele>
        <time>2003-10-17T15:12:09Z</time>
      </trkpt>
      <trkpt lat="44.35541" lon="4.40932">
        <ele>263.77121</ele>
        <time>2003-10-17T15:12:53Z</time>
      </trkpt>
      <trkpt lat="44.35541" lon="4.40955">
        <ele>265.729736</ele>
        <time>2003-10-17T15:13:07Z</time>
      </trkpt>
      <trkpt lat="44.35533" lon="4.40968">
        <ele>266.475586</ele>
        <time>2003-10-17T15:13:26Z</time>
      </trkpt>
      <trkpt lat="44.35485" lon="4.40992">
        <ele>270.023895</ele>
        <time>2003-10-17T15:14:27Z</time>
      </trkpt>
      <trkpt lat="44.35462" lon="4.40998">
        <ele>272.049988</ele>
        <time>2003-10-17T15:16:10Z</time>
      </trkpt>
      <trkpt lat="44.35447" lon="4.41015">
        <ele>275.440002</ele>
        <time>2003-10-17T15:16:24Z</time>
      </trkpt>
      <trkpt lat="44.35432" lon="4.41258">
        <ele>279.639099</ele>
        <time>2003-10-17T15:17:13Z</time>
      </trkpt>
      <trkpt lat="44.35451" lon="4.41268">
        <ele>280.152252</ele>
        <time>2003-10-17T15:17:26Z</time>
      </trkpt>
      <trkpt lat="44.35445" lon="4.41268">
        <ele>279.958099</ele>
        <time>2003-10-17T15:18:00Z</time>
      </trkpt>
      <trkpt lat="44.35434" lon="4.41303">
        <ele>279.380981</ele>
        <time>2003-10-17T15:18:16Z</time>
      </trkpt>
      <trkpt lat="44.35417" lon="4.41386">
        <ele>278.290009</ele>
        <time>2003-10-17T15:18:42Z</time>
      </trkpt>
      <trkpt lat="44.35423" lon="4.41517">
        <ele>278.04126</ele>
        <time>2003-10-17T15:18:49Z</time>
      </trkpt>
      <trkpt lat="44.35442" lon="4.41496">
        <ele>279.234985</ele>
        <time>2003-10-17T15:18:51Z</time>
      </trkpt>
      <trkpt lat="44.35449" lon="4.41517">
        <ele>279.202515</ele>
        <time>2003-10-17T15:18:57Z</time>
      </trkpt>
      <trkpt lat="44.35419" lon="4.41706">
        <ele>275.670013</ele>
        <time>2003-10-17T15:19:38Z</time>
      </trkpt>
      <trkpt lat="44.35385" lon="4.41751">
        <ele>274.184998</ele>
        <time>2003-10-17T15:19:52Z</time>
      </trkpt>
      <trkpt lat="44.35365" lon="4.41816">
        <ele>272.823303</ele>
        <time>2003-10-17T15:20:12Z</time>
      </trkpt>
      <trkpt lat="44.35361" lon="4.42022">
        <ele>270.621246</ele>
        <time>2003-10-17T15:21:00Z</time>
      </trkpt>
      <trkpt lat="44.3538" lon="4.42472">
        <ele>259.394989</ele>
        <time>2003-10-17T15:22:13Z</time>
      </trkpt>
      <trkpt lat="44.35357" lon="4.42498">
        <ele>257.695007</ele>
        <time>2003-10-17T15:22:41Z</time>
      </trkpt>
      <trkpt lat="44.35361" lon="4.42498">
        <ele>257.704987</ele>
        <time>2003-10-17T15:23:31Z</time>
      </trkpt>
      <trkpt lat="44.35374" lon="4.42543">
        <ele>254.895004</ele>
        <time>2003-10-17T15:23:34Z</time>
      </trkpt>
      <trkpt lat="44.3535" lon="4.42567">
        <ele>253.725006</ele>
        <time>2003-10-17T15:23:39Z</time>
      </trkpt>
      <trkpt lat="44.35357" lon="4.42629">
        <ele>251.447647</ele>
        <time>2003-10-17T15:23:55Z</time>
      </trkpt>
      <trkpt lat="44.35387" lon="4.42794">
        <ele>252.380463</ele>
        <time>2003-10-17T15:24:51Z</time>
      </trkpt>
      <trkpt lat="44.35406" lon="4.42846">
        <ele>260.055908</ele>
        <time>2003-10-17T15:34:37Z</time>
      </trkpt>
      <trkpt lat="44.35432" lon="4.42878">
        <ele>261.874786</ele>
        <time>2003-10-17T15:34:48Z</time>
      </trkpt>
      <trkpt lat="44.35438" lon="4.4288">
        <ele>261.79184</ele>
        <time>2003-10-17T15:34:50Z</time>
      </trkpt>
      <trkpt lat="44.35477" lon="4.42964">
        <ele>264.783173</ele>
        <time>2003-10-17T15:35:27Z</time>
      </trkpt>
      <trkpt lat="44.35492" lon="4.43032">
        <ele>264.741241</ele>
        <time>2003-10-17T15:35:47Z</time>
      </trkpt>
      <trkpt lat="44.35496" lon="4.43094">
        <ele>263.11499</ele>
        <time>2003-10-17T15:36:00Z</time>
      </trkpt>
      <trkpt lat="44.35548" lon="4.4321">
        <ele>261.251251</ele>
        <time>2003-10-17T15:36:16Z</time>
      </trkpt>
      <trkpt lat="44.35584" lon="4.43281">
        <ele>260.982513</ele>
        <time>2003-10-17T15:36:31Z</time>
      </trkpt>
      <trkpt lat="44.35571" lon="4.433">
        <ele>260.390015</ele>
        <time>2003-10-17T15:36:42Z</time>
      </trkpt>
      <trkpt lat="44.35595" lon="4.43352">
        <ele>260.887024</ele>
        <time>2003-10-17T15:37:08Z</time>
      </trkpt>
      <trkpt lat="44.3556" lon="4.43406">
        <ele>259.394989</ele>
        <time>2003-10-17T15:37:24Z</time>
      </trkpt>
      <trkpt lat="44.35573" lon="4.43449">
        <ele>260</ele>
        <time>2003-10-17T15:37:47Z</time>
      </trkpt>
      <trkpt lat="44.35616" lon="4.43513">
        <ele>261.482513</ele>
        <time>2003-10-17T15:38:12Z</time>
      </trkpt>
      <trkpt lat="44.35629" lon="4.43603">
        <ele>261.654938</ele>
        <time>2003-10-17T15:38:51Z</time>
      </trkpt>
      <trkpt lat="44.35629" lon="4.43663">
        <ele>261.165405</ele>
        <time>2003-10-17T15:39:14Z</time>
      </trkpt>
      <trkpt lat="44.35588" lon="4.43743">
        <ele>261</ele>
        <time>2003-10-17T15:39:55Z</time>
      </trkpt>
      <trkpt lat="44.35483" lon="4.4373">
        <ele>261.586304</ele>
        <time>2003-10-17T15:40:38Z</time>
      </trkpt>
      <trkpt lat="44.35471" lon="4.43748">
        <ele>262.374939</ele>
        <time>2003-10-17T15:40:52Z</time>
      </trkpt>
      <trkpt lat="44.35455" lon="4.43773">
        <ele>262.979004</ele>
        <time>2003-10-17T15:43:57Z</time>
      </trkpt>
      <trkpt lat="44.3544" lon="4.43785">
        <ele>263</ele>
        <time>2003-10-17T15:44:16Z</time>
      </trkpt>
      <trkpt lat="44.35421" lon="4.43966">
        <ele>262.234924</ele>
        <time>2003-10-17T15:46:03Z</time>
      </trkpt>
      <trkpt lat="44.35442" lon="4.44015">
        <ele>263.307495</ele>
        <time>2003-10-17T15:46:20Z</time>
      </trkpt>
      <trkpt lat="44.35397" lon="4.44073">
        <ele>263.219452</ele>
        <time>2003-10-17T15:46:38Z</time>
      </trkpt>
      <trkpt lat="44.35378" lon="4.44109">
        <ele>262.862701</ele>
        <time>2003-10-17T15:46:52Z</time>
      </trkpt>
      <trkpt lat="44.35402" lon="4.44354">
        <ele>263.602814</ele>
        <time>2003-10-17T15:47:39Z</time>
      </trkpt>
      <trkpt lat="44.35397" lon="4.44371">
        <ele>263.714478</ele>
        <time>2003-10-17T15:47:43Z</time>
      </trkpt>
      <trkpt lat="44.35385" lon="4.4438">
        <ele>261.969879</ele>
        <time>2003-10-17T15:47:46Z</time>
      </trkpt>
      <trkpt lat="44.35344" lon="4.44446">
        <ele>256.844818</ele>
        <time>2003-10-17T15:48:01Z</time>
      </trkpt>
      <trkpt lat="44.35309" lon="4.44543">
        <ele>257.225006</ele>
        <time>2003-10-17T15:48:19Z</time>
      </trkpt>
      <trkpt lat="44.35269" lon="4.44586">
        <ele>256.191833</ele>
        <time>2003-10-17T15:48:47Z</time>
      </trkpt>
      <trkpt lat="44.3526" lon="4.44612">
        <ele>256.385254</ele>
        <time>2003-10-17T15:49:15Z</time>
      </trkpt>
      <trkpt lat="44.35273" lon="4.44749">
        <ele>262.490143</ele>
        <time>2003-10-17T15:49:59Z</time>
      </trkpt>
      <trkpt lat="44.35314" lon="4.44792">
        <ele>254.833878</ele>
        <time>2003-10-17T15:50:14Z</time>
      </trkpt>
      <trkpt lat="44.35325" lon="4.44805">
        <ele>250.487183</ele>
        <time>2003-10-17T15:53:26Z</time>
      </trkpt>
      <trkpt lat="44.35322" lon="4.4482">
        <ele>250.845139</ele>
        <time>2003-10-17T15:56:17Z</time>
      </trkpt>
      <trkpt lat="44.35284" lon="4.44884">
        <ele>257.74295</ele>
        <time>2003-10-17T15:57:31Z</time>
      </trkpt>
      <trkpt lat="44.35245" lon="4.45028">
        <ele>257.71936</ele>
        <time>2003-10-17T15:57:49Z</time>
      </trkpt>
      <trkpt lat="44.35234" lon="4.45051">
        <ele>257.6008</ele>
        <time>2003-10-17T15:57:52Z</time>
      </trkpt>
      <trkpt lat="44.35194" lon="4.45096">
        <ele>255.433456</ele>
        <time>2003-10-17T15:57:58Z</time>
      </trkpt>
      <trkpt lat="44.35148" lon="4.45176">
        <ele>251.315552</ele>
        <time>2003-10-17T15:58:12Z</time>
      </trkpt>
      <trkpt lat="44.35097" lon="4.45296">
        <ele>249</ele>
        <time>2003-10-17T15:58:36Z</time>
      </trkpt>
      <trkpt lat="44.35035" lon="4.45234">
        <ele>247.808975</ele>
        <time>2003-10-17T15:59:17Z</time>
      </trkpt>
      <trkpt lat="44.34915" lon="4.45174">
        <ele>244.25293</ele>
        <time>2003-10-17T15:59:40Z</time>
      </trkpt>
      <trkpt lat="44.34818" lon="4.45217">
        <ele>248.508133</ele>
        <time>2003-10-17T16:00:10Z</time>
      </trkpt>
      <trkpt lat="44.34769" lon="4.45232">
        <ele>247.172501</ele>
        <time>2003-10-17T16:00:23Z</time>
      </trkpt>
      <trkpt lat="44.34741" lon="4.45221">
        <ele>245.186539</ele>
        <time>2003-10-17T16:00:29Z</time>
      </trkpt>
      <trkpt lat="44.34726" lon="4.45204">
        <ele>243.445007</ele>
        <time>2003-10-17T16:00:33Z</time>
      </trkpt>
      <trkpt lat="44.34721" lon="4.45189">
        <ele>242.830002</ele>
        <time>2003-10-17T16:00:35Z</time>
      </trkpt>
      <trkpt lat="44.34717" lon="4.4512">
        <ele>241.99675</ele>
        <time>2003-10-17T16:00:44Z</time>
      </trkpt>
      <trkpt lat="44.34726" lon="4.45073">
        <ele>242.152618</ele>
        <time>2003-10-17T16:00:51Z</time>
      </trkpt>
      <trkpt lat="44.34773" lon="4.45051">
        <ele>243.56337</ele>
        <time>2003-10-17T16:01:01Z</time>
      </trkpt>
      <trkpt lat="44.3487" lon="4.44968">
        <ele>241.021164</ele>
        <time>2003-10-17T16:01:28Z</time>
      </trkpt>
      <trkpt lat="44.34876" lon="4.44946">
        <ele>241.060455</ele>
        <time>2003-10-17T16:01:32Z</time>
      </trkpt>
      <trkpt lat="44.3479" lon="4.44749">
        <ele>221.958588</ele>
        <time>2003-10-17T16:01:39Z</time>
      </trkpt>
      <trkpt lat="44.34792" lon="4.4476">
        <ele>222.063004</ele>
        <time>2003-10-17T16:01:54Z</time>
      </trkpt>
      <trkpt lat="44.34846" lon="4.44755">
        <ele>224.411255</ele>
        <time>2003-10-17T16:02:17Z</time>
      </trkpt>
      <trkpt lat="44.34876" lon="4.44719">
        <ele>226.213425</ele>
        <time>2003-10-17T16:02:32Z</time>
      </trkpt>
      <trkpt lat="44.34872" lon="4.44618">
        <ele>229.007996</ele>
        <time>2003-10-17T16:02:56Z</time>
      </trkpt>
      <trkpt lat="44.34839" lon="4.44616">
        <ele>228.186646</ele>
        <time>2003-10-17T16:03:08Z</time>
      </trkpt>
      <trkpt lat="44.34764" lon="4.44543">
        <ele>233.822754</ele>
        <time>2003-10-17T16:03:38Z</time>
      </trkpt>
      <trkpt lat="44.34743" lon="4.44543">
        <ele>234.399689</ele>
        <time>2003-10-17T16:05:08Z</time>
      </trkpt>
      <trkpt lat="44.34674" lon="4.44526">
        <ele>239.682495</ele>
        <time>2003-10-17T16:05:44Z</time>
      </trkpt>
      <trkpt lat="44.34666" lon="4.44528">
        <ele>240.052505</ele>
        <time>2003-10-17T16:06:13Z</time>
      </trkpt>
      <trkpt lat="44.34623" lon="4.44489">
        <ele>243.759995</ele>
        <time>2003-10-17T16:07:43Z</time>
      </trkpt>
      <trkpt lat="44.34565" lon="4.44457">
        <ele>249.841995</ele>
        <time>2003-10-17T16:07:45Z</time>
      </trkpt>
      <trkpt lat="44.34608" lon="4.44468">
        <ele>245.130005</ele>
        <time>2003-10-17T16:07:49Z</time>
      </trkpt>
      <trkpt lat="44.34616" lon="4.44459">
        <ele>244.380005</ele>
        <time>2003-10-17T16:08:02Z</time>
      </trkpt>
      <trkpt lat="44.34593" lon="4.44448">
        <ele>246.279526</ele>
        <time>2003-10-17T16:08:16Z</time>
      </trkpt>
      <trkpt lat="44.34573" lon="4.44423">
        <ele>248.201569</ele>
        <time>2003-10-17T16:09:07Z</time>
      </trkpt>
      <trkpt lat="44.34524" lon="4.44408">
        <ele>256.935974</ele>
        <time>2003-10-17T16:10:18Z</time>
      </trkpt>
      <trkpt lat="44.345" lon="4.44406">
        <ele>261.946777</ele>
        <time>2003-10-17T16:10:59Z</time>
      </trkpt>
      <trkpt lat="44.34453" lon="4.44391">
        <ele>273.945007</ele>
        <time>2003-10-17T16:11:14Z</time>
      </trkpt>
      <trkpt lat="44.34412" lon="4.44363">
        <ele>281.745117</ele>
        <time>2003-10-17T16:11:33Z</time>
      </trkpt>
      <trkpt lat="44.344" lon="4.4436">
        <ele>284.19455</ele>
        <time>2003-10-17T16:11:39Z</time>
      </trkpt>
      <trkpt lat="44.34385" lon="4.44335">
        <ele>285.33844</ele>
        <time>2003-10-17T16:11:58Z</time>
      </trkpt>
      <trkpt lat="44.3438" lon="4.44335">
        <ele>286.150177</ele>
        <time>2003-10-17T16:12:01Z</time>
      </trkpt>
      <trkpt lat="44.3438" lon="4.44341">
        <ele>286.584961</ele>
        <time>2003-10-17T16:12:03Z</time>
      </trkpt>
      <trkpt lat="44.34361" lon="4.44373">
        <ele>292.711426</ele>
        <time>2003-10-17T16:12:31Z</time>
      </trkpt>
      <trkpt lat="44.3435" lon="4.44448">
        <ele>297.220001</ele>
        <time>2003-10-17T16:13:53Z</time>
      </trkpt>
      <trkpt lat="44.34355" lon="4.44474">
        <ele>294.644989</ele>
        <time>2003-10-17T16:14:35Z</time>
      </trkpt>
      <trkpt lat="44.34342" lon="4.44519">
        <ele>293.441437</ele>
        <time>2003-10-17T16:15:20Z</time>
      </trkpt>
      <trkpt lat="44.34331" lon="4.44506">
        <ele>297.119995</ele>
        <time>2003-10-17T16:15:29Z</time>
      </trkpt>
      <trkpt lat="44.34312" lon="4.44466">
        <ele>303.628174</ele>
        <time>2003-10-17T16:16:04Z</time>
      </trkpt>
      <trkpt lat="44.34277" lon="4.4441">
        <ele>311.082489</ele>
        <time>2003-10-17T16:16:57Z</time>
      </trkpt>
      <trkpt lat="44.34228" lon="4.44461">
        <ele>318.970367</ele>
        <time>2003-10-17T16:18:07Z</time>
      </trkpt>
      <trkpt lat="44.34222" lon="4.44474">
        <ele>318.008392</ele>
        <time>2003-10-17T16:18:25Z</time>
      </trkpt>
      <trkpt lat="44.34153" lon="4.44446">
        <ele>331.421265</ele>
        <time>2003-10-17T16:19:03Z</time>
      </trkpt>
      <trkpt lat="44.34157" lon="4.44451">
        <ele>330.170654</ele>
        <time>2003-10-17T16:19:09Z</time>
      </trkpt>
      <trkpt lat="44.34129" lon="4.44433">
        <ele>336.492493</ele>
        <time>2003-10-17T16:19:59Z</time>
      </trkpt>
      <trkpt lat="44.34131" lon="4.44436">
        <ele>336.104645</ele>
        <time>2003-10-17T16:20:10Z</time>
      </trkpt>
      <trkpt lat="44.34108" lon="4.44444">
        <ele>339.007751</ele>
        <time>2003-10-17T16:20:43Z</time>
      </trkpt>
      <trkpt lat="44.34084" lon="4.44463">
        <ele>339.846954</ele>
        <time>2003-10-17T16:21:12Z</time>
      </trkpt>
      <trkpt lat="44.34056" lon="4.44446">
        <ele>348.871033</ele>
        <time>2003-10-17T16:21:49Z</time>
      </trkpt>
      <trkpt lat="44.3402" lon="4.44455">
        <ele>354.81131</ele>
        <time>2003-10-17T16:22:45Z</time>
      </trkpt>
      <trkpt lat="44.33968" lon="4.44446">
        <ele>364.149536</ele>
        <time>2003-10-17T16:23:56Z</time>
      </trkpt>
      <trkpt lat="44.33915" lon="4.44429">
        <ele>369.864685</ele>
        <time>2003-10-17T16:24:47Z</time>
      </trkpt>
      <trkpt lat="44.33855" lon="4.44386">
        <ele>376.152344</ele>
        <time>2003-10-17T16:25:24Z</time>
      </trkpt>
      <trkpt lat="44.33827" lon="4.44358">
        <ele>377.355011</ele>
        <time>2003-10-17T16:27:21Z</time>
      </trkpt>
      <trkpt lat="44.33786" lon="4.44489">
        <ele>384.535004</ele>
        <time>2003-10-17T16:28:30Z</time>
      </trkpt>
      <trkpt lat="44.33679" lon="4.44648">
        <ele>384</ele>
        <time>2003-10-17T16:29:27Z</time>
      </trkpt>
      <trkpt lat="44.33614" lon="4.4477">
        <ele>385.312744</ele>
        <time>2003-10-17T16:29:58Z</time>
      </trkpt>
      <trkpt lat="44.33531" lon="4.44899">
        <ele>386.214203</ele>
        <time>2003-10-17T16:30:20Z</time>
      </trkpt>
      <trkpt lat="44.33505" lon="4.44921">
        <ele>386.9375</ele>
        <time>2003-10-17T16:30:25Z</time>
      </trkpt>
      <trkpt lat="44.33488" lon="4.44925">
        <ele>387.15625</ele>
        <time>2003-10-17T16:30:28Z</time>
      </trkpt>
      <trkpt lat="44.33468" lon="4.44944">
        <ele>387.476257</ele>
        <time>2003-10-17T16:30:32Z</time>
      </trkpt>
      <trkpt lat="44.33449" lon="4.44983">
        <ele>387.93512</ele>
        <time>2003-10-17T16:30:39Z</time>
      </trkpt>
      <trkpt lat="44.334" lon="4.45107">
        <ele>388.119995</ele>
        <time>2003-10-17T16:31:07Z</time>
      </trkpt>
      <trkpt lat="44.33374" lon="4.45255">
        <ele>388.627502</ele>
        <time>2003-10-17T16:31:39Z</time>
      </trkpt>
      <trkpt lat="44.33333" lon="4.45438">
        <ele>386.921783</ele>
        <time>2003-10-17T16:32:12Z</time>
      </trkpt>
      <trkpt lat="44.33258" lon="4.45524">
        <ele>389.415009</ele>
        <time>2003-10-17T16:32:32Z</time>
      </trkpt>
      <trkpt lat="44.332" lon="4.45607">
        <ele>392.462494</ele>
        <time>2003-10-17T16:32:54Z</time>
      </trkpt>
      <trkpt lat="44.33114" lon="4.45717">
        <ele>394.187012</ele>
        <time>2003-10-17T16:33:24Z</time>
      </trkpt>
      <trkpt lat="44.33013" lon="4.45809">
        <ele>396.893005</ele>
        <time>2003-10-17T16:33:49Z</time>
      </trkpt>
      <trkpt lat="44.32962" lon="4.45837">
        <ele>398.536743</ele>
        <time>2003-10-17T16:34:04Z</time>
      </trkpt>
      <trkpt lat="44.32902" lon="4.4586">
        <ele>400.677338</ele>
        <time>2003-10-17T16:34:27Z</time>
      </trkpt>
      <trkpt lat="44.32837" lon="4.45925">
        <ele>402.238739</ele>
        <time>2003-10-17T16:34:53Z</time>
      </trkpt>
      <trkpt lat="44.32795" lon="4.4603">
        <ele>401.653809</ele>
        <time>2003-10-17T16:35:20Z</time>
      </trkpt>
      <trkpt lat="44.32762" lon="4.46229">
        <ele>402.296448</ele>
        <time>2003-10-17T16:36:02Z</time>
      </trkpt>
      <trkpt lat="44.32762" lon="4.4645">
        <ele>400.8479</ele>
        <time>2003-10-17T16:36:45Z</time>
      </trkpt>
      <trkpt lat="44.32769" lon="4.46508">
        <ele>397.959991</ele>
        <time>2003-10-17T16:36:53Z</time>
      </trkpt>
      <trkpt lat="44.32812" lon="4.46663">
        <ele>394.843994</ele>
        <time>2003-10-17T16:37:15Z</time>
      </trkpt>
      <trkpt lat="44.3282" lon="4.46723">
        <ele>394.69751</ele>
        <time>2003-10-17T16:37:22Z</time>
      </trkpt>
      <trkpt lat="44.32818" lon="4.46779">
        <ele>394.627869</ele>
        <time>2003-10-17T16:37:28Z</time>
      </trkpt>
      <trkpt lat="44.3281" lon="4.46815">
        <ele>394.133759</ele>
        <time>2003-10-17T16:37:33Z</time>
      </trkpt>
      <trkpt lat="44.32816" lon="4.46925">
        <ele>394.83725</ele>
        <time>2003-10-17T16:37:48Z</time>
      </trkpt>
      <trkpt lat="44.32807" lon="4.4712">
        <ele>394.751068</ele>
        <time>2003-10-17T16:38:17Z</time>
      </trkpt>
      <trkpt lat="44.32799" lon="4.47165">
        <ele>394.412506</ele>
        <time>2003-10-17T16:38:24Z</time>
      </trkpt>
      <trkpt lat="44.32797" lon="4.4721">
        <ele>394.38501</ele>
        <time>2003-10-17T16:38:30Z</time>
      </trkpt>
      <trkpt lat="44.32801" lon="4.473">
        <ele>394.517487</ele>
        <time>2003-10-17T16:38:41Z</time>
      </trkpt>
      <trkpt lat="44.3279" lon="4.47317">
        <ele>394.287506</ele>
        <time>2003-10-17T16:38:45Z</time>
      </trkpt>
      <trkpt lat="44.32713" lon="4.47397">
        <ele>391.253113</ele>
        <time>2003-10-17T16:39:10Z</time>
      </trkpt>
      <trkpt lat="44.32651" lon="4.47504">
        <ele>388.754669</ele>
        <time>2003-10-17T16:39:30Z</time>
      </trkpt>
      <trkpt lat="44.32576" lon="4.47665">
        <ele>387.914642</ele>
        <time>2003-10-17T16:39:53Z</time>
      </trkpt>
      <trkpt lat="44.32537" lon="4.47781">
        <ele>388.692505</ele>
        <time>2003-10-17T16:40:11Z</time>
      </trkpt>
      <trkpt lat="44.32509" lon="4.4792">
        <ele>382.045013</ele>
        <time>2003-10-17T16:40:31Z</time>
      </trkpt>
      <trkpt lat="44.32492" lon="4.47965">
        <ele>378.94751</ele>
        <time>2003-10-17T16:40:37Z</time>
      </trkpt>
      <trkpt lat="44.32432" lon="4.48079">
        <ele>374.475647</ele>
        <time>2003-10-17T16:40:53Z</time>
      </trkpt>
      <trkpt lat="44.32391" lon="4.48141">
        <ele>371.588379</ele>
        <time>2003-10-17T16:41:04Z</time>
      </trkpt>
      <trkpt lat="44.32374" lon="4.48156">
        <ele>370.7565</ele>
        <time>2003-10-17T16:41:18Z</time>
      </trkpt>
      <trkpt lat="44.32368" lon="4.48156">
        <ele>370.546936</ele>
        <time>2003-10-17T16:41:46Z</time>
      </trkpt>
      <trkpt lat="44.3235" lon="4.4818">
        <ele>369.299988</ele>
        <time>2003-10-17T16:42:07Z</time>
      </trkpt>
      <trkpt lat="44.32303" lon="4.48266">
        <ele>365.656708</ele>
        <time>2003-10-17T16:42:46Z</time>
      </trkpt>
      <trkpt lat="44.32271" lon="4.48349">
        <ele>362.393555</ele>
        <time>2003-10-17T16:42:50Z</time>
      </trkpt>
      <trkpt lat="44.32245" lon="4.48362">
        <ele>361.092499</ele>
        <time>2003-10-17T16:42:55Z</time>
      </trkpt>
      <trkpt lat="44.32232" lon="4.48397">
        <ele>359.936493</ele>
        <time>2003-10-17T16:43:01Z</time>
      </trkpt>
      <trkpt lat="44.32226" lon="4.48442">
        <ele>358.735016</ele>
        <time>2003-10-17T16:43:09Z</time>
      </trkpt>
      <trkpt lat="44.32196" lon="4.48534">
        <ele>358.924835</ele>
        <time>2003-10-17T16:43:24Z</time>
      </trkpt>
      <trkpt lat="44.32144" lon="4.48596">
        <ele>357.484985</ele>
        <time>2003-10-17T16:43:54Z</time>
      </trkpt>
      <trkpt lat="44.32127" lon="4.48603">
        <ele>357.105011</ele>
        <time>2003-10-17T16:44:00Z</time>
      </trkpt>
      <trkpt lat="44.32089" lon="4.48736">
        <ele>356.179993</ele>
        <time>2003-10-17T16:44:34Z</time>
      </trkpt>
      <trkpt lat="44.32024" lon="4.48871">
        <ele>357.068695</ele>
        <time>2003-10-17T16:45:06Z</time>
      </trkpt>
      <trkpt lat="44.32037" lon="4.48961">
        <ele>357.190002</ele>
        <time>2003-10-17T16:45:23Z</time>
      </trkpt>
      <trkpt lat="44.32044" lon="4.49051">
        <ele>359.219116</ele>
        <time>2003-10-17T16:45:42Z</time>
      </trkpt>
      <trkpt lat="44.31979" lon="4.49161">
        <ele>359.700958</ele>
        <time>2003-10-17T16:46:08Z</time>
      </trkpt>
      <trkpt lat="44.3196" lon="4.4921">
        <ele>358.065002</ele>
        <time>2003-10-17T16:46:17Z</time>
      </trkpt>
      <trkpt lat="44.31943" lon="4.49298">
        <ele>354.621674</ele>
        <time>2003-10-17T16:46:30Z</time>
      </trkpt>
      <trkpt lat="44.31934" lon="4.49388">
        <ele>351.623169</ele>
        <time>2003-10-17T16:46:41Z</time>
      </trkpt>
      <trkpt lat="44.31941" lon="4.49448">
        <ele>350.302338</ele>
        <time>2003-10-17T16:46:48Z</time>
      </trkpt>
      <trkpt lat="44.31994" lon="4.49543">
        <ele>346.130005</ele>
        <time>2003-10-17T16:46:53Z</time>
      </trkpt>
      <trkpt lat="44.31986" lon="4.49646">
        <ele>343.301636</ele>
        <time>2003-10-17T16:47:06Z</time>
      </trkpt>
      <trkpt lat="44.31977" lon="4.49697">
        <ele>339.674469</ele>
        <time>2003-10-17T16:47:17Z</time>
      </trkpt>
      <trkpt lat="44.3199" lon="4.49727">
        <ele>337.002289</ele>
        <time>2003-10-17T16:47:23Z</time>
      </trkpt>
      <trkpt lat="44.32069" lon="4.49759">
        <ele>336.337006</ele>
        <time>2003-10-17T16:47:36Z</time>
      </trkpt>
      <trkpt lat="44.32129" lon="4.49832">
        <ele>330.625671</ele>
        <time>2003-10-17T16:47:49Z</time>
      </trkpt>
      <trkpt lat="44.32129" lon="4.49847">
        <ele>330.06778</ele>
        <time>2003-10-17T16:47:53Z</time>
      </trkpt>
      <trkpt lat="44.32097" lon="4.49907">
        <ele>328.48114</ele>
        <time>2003-10-17T16:48:09Z</time>
      </trkpt>
      <trkpt lat="44.32041" lon="4.49952">
        <ele>324.113373</ele>
        <time>2003-10-17T16:48:28Z</time>
      </trkpt>
      <trkpt lat="44.3199" lon="4.49976">
        <ele>324.127502</ele>
        <time>2003-10-17T16:48:42Z</time>
      </trkpt>
      <trkpt lat="44.31893" lon="4.50006">
        <ele>326.236786</ele>
        <time>2003-10-17T16:49:05Z</time>
      </trkpt>
      <trkpt lat="44.31717" lon="4.49974">
        <ele>317.468811</ele>
        <time>2003-10-17T16:49:28Z</time>
      </trkpt>
      <trkpt lat="44.31698" lon="4.49993">
        <ele>317.064331</ele>
        <time>2003-10-17T16:49:32Z</time>
      </trkpt>
      <trkpt lat="44.31687" lon="4.50015">
        <ele>317.973846</ele>
        <time>2003-10-17T16:49:35Z</time>
      </trkpt>
      <trkpt lat="44.31679" lon="4.50075">
        <ele>323.847046</ele>
        <time>2003-10-17T16:49:43Z</time>
      </trkpt>
      <trkpt lat="44.31666" lon="4.50075">
        <ele>322.847626</ele>
        <time>2003-10-17T16:49:49Z</time>
      </trkpt>
      <trkpt lat="44.31614" lon="4.50049">
        <ele>315.085663</ele>
        <time>2003-10-17T16:50:01Z</time>
      </trkpt>
      <trkpt lat="44.31597" lon="4.50051">
        <ele>314.013977</ele>
        <time>2003-10-17T16:50:05Z</time>
      </trkpt>
      <trkpt lat="44.31456" lon="4.501">
        <ele>308.566711</ele>
        <time>2003-10-17T16:50:35Z</time>
      </trkpt>
      <trkpt lat="44.31432" lon="4.50113">
        <ele>309.075317</ele>
        <time>2003-10-17T16:50:47Z</time>
      </trkpt>
      <trkpt lat="44.31411" lon="4.50135">
        <ele>310.219147</ele>
        <time>2003-10-17T16:50:57Z</time>
      </trkpt>
      <trkpt lat="44.31385" lon="4.50191">
        <ele>312.674377</ele>
        <time>2003-10-17T16:51:11Z</time>
      </trkpt>
      <trkpt lat="44.31365" lon="4.50216">
        <ele>312.566254</ele>
        <time>2003-10-17T16:51:18Z</time>
      </trkpt>
      <trkpt lat="44.31363" lon="4.50246">
        <ele>312.566467</ele>
        <time>2003-10-17T16:51:23Z</time>
      </trkpt>
      <trkpt lat="44.31376" lon="4.50354">
        <ele>314.862488</ele>
        <time>2003-10-17T16:51:41Z</time>
      </trkpt>
      <trkpt lat="44.31353" lon="4.5039">
        <ele>313.453033</ele>
        <time>2003-10-17T16:51:48Z</time>
      </trkpt>
      <trkpt lat="44.31346" lon="4.50416">
        <ele>313.438019</ele>
        <time>2003-10-17T16:51:52Z</time>
      </trkpt>
      <trkpt lat="44.31342" lon="4.50463">
        <ele>314.915833</ele>
        <time>2003-10-17T16:52:00Z</time>
      </trkpt>
      <trkpt lat="44.31348" lon="4.5053">
        <ele>317.401794</ele>
        <time>2003-10-17T16:52:11Z</time>
      </trkpt>
      <trkpt lat="44.3132" lon="4.5057">
        <ele>316.252747</ele>
        <time>2003-10-17T16:52:20Z</time>
      </trkpt>
      <trkpt lat="44.31293" lon="4.50675">
        <ele>315.095001</ele>
        <time>2003-10-17T16:52:36Z</time>
      </trkpt>
      <trkpt lat="44.31293" lon="4.50778">
        <ele>312.67749</ele>
        <time>2003-10-17T16:52:47Z</time>
      </trkpt>
      <trkpt lat="44.31297" lon="4.50841">
        <ele>311.065002</ele>
        <time>2003-10-17T16:52:53Z</time>
      </trkpt>
      <trkpt lat="44.31293" lon="4.50862">
        <ele>309.978119</ele>
        <time>2003-10-17T16:52:55Z</time>
      </trkpt>
      <trkpt lat="44.31265" lon="4.50916">
        <ele>306.761261</ele>
        <time>2003-10-17T16:53:01Z</time>
      </trkpt>
      <trkpt lat="44.31222" lon="4.51023">
        <ele>304.039825</ele>
        <time>2003-10-17T16:53:14Z</time>
      </trkpt>
      <trkpt lat="44.3119" lon="4.5107">
        <ele>302.043732</ele>
        <time>2003-10-17T16:53:22Z</time>
      </trkpt>
      <trkpt lat="44.31164" lon="4.51081">
        <ele>300.453644</ele>
        <time>2003-10-17T16:53:26Z</time>
      </trkpt>
      <trkpt lat="44.31112" lon="4.51137">
        <ele>297.216827</ele>
        <time>2003-10-17T16:53:35Z</time>
      </trkpt>
      <trkpt lat="44.31087" lon="4.51186">
        <ele>295.654999</ele>
        <time>2003-10-17T16:53:41Z</time>
      </trkpt>
      <trkpt lat="44.31067" lon="4.51212">
        <ele>294.383759</ele>
        <time>2003-10-17T16:53:45Z</time>
      </trkpt>
      <trkpt lat="44.31052" lon="4.51244">
        <ele>293.054321</ele>
        <time>2003-10-17T16:53:49Z</time>
      </trkpt>
      <trkpt lat="44.31046" lon="4.51268">
        <ele>292.382202</ele>
        <time>2003-10-17T16:53:52Z</time>
      </trkpt>
      <trkpt lat="44.31063" lon="4.5133">
        <ele>290.922485</ele>
        <time>2003-10-17T16:54:00Z</time>
      </trkpt>
      <trkpt lat="44.31091" lon="4.51349">
        <ele>290.278503</ele>
        <time>2003-10-17T16:54:05Z</time>
      </trkpt>
      <trkpt lat="44.31102" lon="4.51386">
        <ele>286.956604</ele>
        <time>2003-10-17T16:54:10Z</time>
      </trkpt>
      <trkpt lat="44.31102" lon="4.5145">
        <ele>281.990204</ele>
        <time>2003-10-17T16:54:18Z</time>
      </trkpt>
      <trkpt lat="44.31119" lon="4.51534">
        <ele>277.874878</ele>
        <time>2003-10-17T16:54:30Z</time>
      </trkpt>
      <trkpt lat="44.31247" lon="4.51658">
        <ele>273.80249</ele>
        <time>2003-10-17T16:55:05Z</time>
      </trkpt>
      <trkpt lat="44.31256" lon="4.51688">
        <ele>273.262512</ele>
        <time>2003-10-17T16:55:11Z</time>
      </trkpt>
      <trkpt lat="44.31247" lon="4.51905">
        <ele>272.852509</ele>
        <time>2003-10-17T16:55:47Z</time>
      </trkpt>
      <trkpt lat="44.31265" lon="4.51972">
        <ele>274.542511</ele>
        <time>2003-10-17T16:55:56Z</time>
      </trkpt>
      <trkpt lat="44.31301" lon="4.52055">
        <ele>276.065002</ele>
        <time>2003-10-17T16:56:06Z</time>
      </trkpt>
      <trkpt lat="44.31391" lon="4.52147">
        <ele>277.210968</ele>
        <time>2003-10-17T16:56:22Z</time>
      </trkpt>
      <trkpt lat="44.31423" lon="4.52188">
        <ele>278.700653</ele>
        <time>2003-10-17T16:56:29Z</time>
      </trkpt>
      <trkpt lat="44.31402" lon="4.5227">
        <ele>279.859772</ele>
        <time>2003-10-17T16:56:41Z</time>
      </trkpt>
      <trkpt lat="44.31404" lon="4.52298">
        <ele>280</ele>
        <time>2003-10-17T16:56:47Z</time>
      </trkpt>
      <trkpt lat="44.31415" lon="4.52336">
        <ele>280</ele>
        <time>2003-10-17T16:56:54Z</time>
      </trkpt>
      <trkpt lat="44.3143" lon="4.52366">
        <ele>279.742493</ele>
        <time>2003-10-17T16:57:00Z</time>
      </trkpt>
      <trkpt lat="44.3146" lon="4.52469">
        <ele>279.00592</ele>
        <time>2003-10-17T16:57:14Z</time>
      </trkpt>
      <trkpt lat="44.3152" lon="4.52645">
        <ele>280.221375</ele>
        <time>2003-10-17T16:57:36Z</time>
      </trkpt>
      <trkpt lat="44.31522" lon="4.5274">
        <ele>278.230988</ele>
        <time>2003-10-17T16:57:46Z</time>
      </trkpt>
      <trkpt lat="44.31541" lon="4.52909">
        <ele>271.598755</ele>
        <time>2003-10-17T16:58:00Z</time>
      </trkpt>
      <trkpt lat="44.31511" lon="4.53012">
        <ele>265.037201</ele>
        <time>2003-10-17T16:58:09Z</time>
      </trkpt>
      <trkpt lat="44.31499" lon="4.53044">
        <ele>263.303253</ele>
        <time>2003-10-17T16:58:12Z</time>
      </trkpt>
      <trkpt lat="44.31492" lon="4.53059">
        <ele>262.40863</ele>
        <time>2003-10-17T17:01:29Z</time>
      </trkpt>
      <trkpt lat="44.3149" lon="4.53074">
        <ele>261.824585</ele>
        <time>2003-10-17T17:01:40Z</time>
      </trkpt>
      <trkpt lat="44.31459" lon="4.53124">
        <ele>259.243744</ele>
        <time>2003-10-17T17:01:59Z</time>
      </trkpt>
      <trkpt lat="44.31438" lon="4.5318">
        <ele>257.685455</ele>
        <time>2003-10-17T17:02:15Z</time>
      </trkpt>
      <trkpt lat="44.31404" lon="4.53306">
        <ele>255.308746</ele>
        <time>2003-10-17T17:03:01Z</time>
      </trkpt>
      <trkpt lat="44.31383" lon="4.5345">
        <ele>249.178757</ele>
        <time>2003-10-17T17:04:40Z</time>
      </trkpt>
      <trkpt lat="44.31368" lon="4.53504">
        <ele>246.270004</ele>
        <time>2003-10-17T17:04:53Z</time>
      </trkpt>
      <trkpt lat="44.31355" lon="4.53514">
        <ele>245.449997</ele>
        <time>2003-10-17T17:21:20Z</time>
      </trkpt>
      <trkpt lat="44.31355" lon="4.53547">
        <ele>243.876556</ele>
        <time>2003-10-17T17:23:42Z</time>
      </trkpt>
      <trkpt lat="44.31346" lon="4.5363">
        <ele>238.632599</ele>
        <time>2003-10-17T17:24:13Z</time>
      </trkpt>
      <trkpt lat="44.3135" lon="4.53669">
        <ele>237.179993</ele>
        <time>2003-10-17T17:24:18Z</time>
      </trkpt>
      <trkpt lat="44.31361" lon="4.53705">
        <ele>236.794998</ele>
        <time>2003-10-17T17:24:22Z</time>
      </trkpt>
      <trkpt lat="44.314" lon="4.53787">
        <ele>238.2798</ele>
        <time>2003-10-17T17:24:40Z</time>
      </trkpt>
      <trkpt lat="44.31486" lon="4.53877">
        <ele>239.448181</ele>
        <time>2003-10-17T17:25:23Z</time>
      </trkpt>
      <trkpt lat="44.31524" lon="4.53976">
        <ele>239.116257</ele>
        <time>2003-10-17T17:25:53Z</time>
      </trkpt>
      <trkpt lat="44.31496" lon="4.54141">
        <ele>236.925003</ele>
        <time>2003-10-17T17:26:35Z</time>
      </trkpt>
      <trkpt lat="44.31499" lon="4.5421">
        <ele>237.66272</ele>
        <time>2003-10-17T17:26:54Z</time>
      </trkpt>
      <trkpt lat="44.31488" lon="4.54225">
        <ele>237.698593</ele>
        <time>2003-10-17T17:26:59Z</time>
      </trkpt>
      <trkpt lat="44.31443" lon="4.5424">
        <ele>237.962296</ele>
        <time>2003-10-17T17:27:11Z</time>
      </trkpt>
      <trkpt lat="44.31411" lon="4.5427">
        <ele>238.387024</ele>
        <time>2003-10-17T17:27:18Z</time>
      </trkpt>
      <trkpt lat="44.31368" lon="4.54328">
        <ele>238.642807</ele>
        <time>2003-10-17T17:27:37Z</time>
      </trkpt>
      <trkpt lat="44.31286" lon="4.54398">
        <ele>238.98082</ele>
        <time>2003-10-17T17:28:12Z</time>
      </trkpt>
      <trkpt lat="44.31252" lon="4.54461">
        <ele>239.552597</ele>
        <time>2003-10-17T17:28:35Z</time>
      </trkpt>
      <trkpt lat="44.3123" lon="4.5448">
        <ele>238.952835</ele>
        <time>2003-10-17T17:28:41Z</time>
      </trkpt>
      <trkpt lat="44.31209" lon="4.5451">
        <ele>234.217133</ele>
        <time>2003-10-17T17:28:49Z</time>
      </trkpt>
      <trkpt lat="44.31196" lon="4.54521">
        <ele>232.73468</ele>
        <time>2003-10-17T17:28:54Z</time>
      </trkpt>
      <trkpt lat="44.31185" lon="4.54542">
        <ele>229.413132</ele>
        <time>2003-10-17T17:28:58Z</time>
      </trkpt>
      <trkpt lat="44.31129" lon="4.54622">
        <ele>213.211472</ele>
        <time>2003-10-17T17:29:18Z</time>
      </trkpt>
      <trkpt lat="44.3108" lon="4.54662">
        <ele>204.243607</ele>
        <time>2003-10-17T17:29:33Z</time>
      </trkpt>
      <trkpt lat="44.31052" lon="4.54712">
        <ele>194.616989</ele>
        <time>2003-10-17T17:29:41Z</time>
      </trkpt>
      <trkpt lat="44.31046" lon="4.54733">
        <ele>190.971375</ele>
        <time>2003-10-17T17:29:44Z</time>
      </trkpt>
      <trkpt lat="44.31029" lon="4.54761">
        <ele>188.553894</ele>
        <time>2003-10-17T17:29:48Z</time>
      </trkpt>
      <trkpt lat="44.30994" lon="4.5487">
        <ele>177.749924</ele>
        <time>2003-10-17T17:30:06Z</time>
      </trkpt>
      <trkpt lat="44.30984" lon="4.54892">
        <ele>175.915222</ele>
        <time>2003-10-17T17:30:54Z</time>
      </trkpt>
      <trkpt lat="44.30951" lon="4.54933">
        <ele>171.779099</ele>
        <time>2003-10-17T17:31:03Z</time>
      </trkpt>
      <trkpt lat="44.30911" lon="4.54967">
        <ele>167.698288</ele>
        <time>2003-10-17T17:31:49Z</time>
      </trkpt>
      <trkpt lat="44.30866" lon="4.54991">
        <ele>162.788223</ele>
        <time>2003-10-17T17:32:28Z</time>
      </trkpt>
      <trkpt lat="44.30851" lon="4.55014">
        <ele>159.821503</ele>
        <time>2003-10-17T17:32:37Z</time>
      </trkpt>
      <trkpt lat="44.30857" lon="4.55046">
        <ele>157.481583</ele>
        <time>2003-10-17T17:32:45Z</time>
      </trkpt>
      <trkpt lat="44.30853" lon="4.55085">
        <ele>157.217499</ele>
        <time>2003-10-17T17:33:00Z</time>
      </trkpt>
      <trkpt lat="44.3084" lon="4.55096">
        <ele>158.323151</ele>
        <time>2003-10-17T17:33:11Z</time>
      </trkpt>
      <trkpt lat="44.30848" lon="4.55128">
        <ele>153.484375</ele>
        <time>2003-10-17T17:33:18Z</time>
      </trkpt>
      <trkpt lat="44.30846" lon="4.55134">
        <ele>153.394974</ele>
        <time>2003-10-17T17:33:21Z</time>
      </trkpt>
      <trkpt lat="44.30844" lon="4.55132">
        <ele>154.21138</ele>
        <time>2003-10-17T17:33:28Z</time>
      </trkpt>
      <trkpt lat="44.30831" lon="4.55171">
        <ele>148.640259</ele>
        <time>2003-10-17T17:34:18Z</time>
      </trkpt>
      <trkpt lat="44.30818" lon="4.55192">
        <ele>146.810974</ele>
        <time>2003-10-17T17:36:01Z</time>
      </trkpt>
      <trkpt lat="44.30808" lon="4.55199">
        <ele>148.095703</ele>
        <time>2003-10-17T17:36:53Z</time>
      </trkpt>
      <trkpt lat="44.30799" lon="4.55216">
        <ele>145.761398</ele>
        <time>2003-10-17T17:37:07Z</time>
      </trkpt>
      <trkpt lat="44.30778" lon="4.55237">
        <ele>141.282684</ele>
        <time>2003-10-17T17:37:21Z</time>
      </trkpt>
      <trkpt lat="44.30765" lon="4.55259">
        <ele>131.563873</ele>
        <time>2003-10-17T17:37:30Z</time>
      </trkpt>
      <trkpt lat="44.30758" lon="4.55257">
        <ele>134.082733</ele>
        <time>2003-10-17T17:37:44Z</time>
      </trkpt>
      <trkpt lat="44.30741" lon="4.55265">
        <ele>135.602798</ele>
        <time>2003-10-17T17:38:12Z</time>
      </trkpt>
      <trkpt lat="44.30707" lon="4.55302">
        <ele>127.087433</ele>
        <time>2003-10-17T17:38:26Z</time>
      </trkpt>
      <trkpt lat="44.30692" lon="4.55325">
        <ele>124.953751</ele>
        <time>2003-10-17T17:38:43Z</time>
      </trkpt>
      <trkpt lat="44.30677" lon="4.55336">
        <ele>124.959404</ele>
        <time>2003-10-17T17:38:57Z</time>
      </trkpt>
      <trkpt lat="44.30638" lon="4.55396">
        <ele>115.692268</ele>
        <time>2003-10-17T17:39:29Z</time>
      </trkpt>
      <trkpt lat="44.30602" lon="4.55407">
        <ele>111.213371</ele>
        <time>2003-10-17T17:39:47Z</time>
      </trkpt>
      <trkpt lat="44.30587" lon="4.55418">
        <ele>106.773071</ele>
        <time>2003-10-17T17:39:55Z</time>
      </trkpt>
      <trkpt lat="44.30578" lon="4.55418">
        <ele>106.667465</ele>
        <time>2003-10-17T17:39:58Z</time>
      </trkpt>
      <trkpt lat="44.30559" lon="4.5545">
        <ele>98.396179</ele>
        <time>2003-10-17T17:40:08Z</time>
      </trkpt>
      <trkpt lat="44.30544" lon="4.55461">
        <ele>97.205856</ele>
        <time>2003-10-17T17:40:30Z</time>
      </trkpt>
      <trkpt lat="44.30531" lon="4.55461">
        <ele>96.98967</ele>
        <time>2003-10-17T17:40:40Z</time>
      </trkpt>
      <trkpt lat="44.30509" lon="4.55478">
        <ele>91.893082</ele>
        <time>2003-10-17T17:40:54Z</time>
      </trkpt>
      <trkpt lat="44.30471" lon="4.55531">
        <ele>83.781197</ele>
        <time>2003-10-17T17:42:52Z</time>
      </trkpt>
      <trkpt lat="44.30445" lon="4.55536">
        <ele>87.376266</ele>
        <time>2003-10-17T17:43:02Z</time>
      </trkpt>
      <trkpt lat="44.30428" lon="4.55546">
        <ele>87.339996</ele>
        <time>2003-10-17T17:43:12Z</time>
      </trkpt>
      <trkpt lat="44.30421" lon="4.55583">
        <ele>81.339249</ele>
        <time>2003-10-17T17:43:43Z</time>
      </trkpt>
      <trkpt lat="44.30404" lon="4.55585">
        <ele>83.681999</ele>
        <time>2003-10-17T17:45:23Z</time>
      </trkpt>
      <trkpt lat="44.30383" lon="4.55611">
        <ele>82.512184</ele>
        <time>2003-10-17T17:45:35Z</time>
      </trkpt>
      <trkpt lat="44.30321" lon="4.5566">
        <ele>83.584236</ele>
        <time>2003-10-17T17:46:03Z</time>
      </trkpt>
      <trkpt lat="44.30267" lon="4.55677">
        <ele>88.310402</ele>
        <time>2003-10-17T17:47:36Z</time>
      </trkpt>
      <trkpt lat="44.30226" lon="4.55731">
        <ele>83.502502</ele>
        <time>2003-10-17T17:48:01Z</time>
      </trkpt>
      <trkpt lat="44.30224" lon="4.55744">
        <ele>82.438751</ele>
        <time>2003-10-17T17:48:06Z</time>
      </trkpt>
      <trkpt lat="44.30207" lon="4.5575">
        <ele>85.352249</ele>
        <time>2003-10-17T17:48:39Z</time>
      </trkpt>
      <trkpt lat="44.30207" lon="4.55793">
        <ele>78.654503</ele>
        <time>2003-10-17T17:49:24Z</time>
      </trkpt>
      <trkpt lat="44.30198" lon="4.55789">
        <ele>82.699974</ele>
        <time>2003-10-17T17:49:45Z</time>
      </trkpt>
      <trkpt lat="44.30168" lon="4.55827">
        <ele>89.295097</ele>
        <time>2003-10-17T17:50:32Z</time>
      </trkpt>
      <trkpt lat="44.30179" lon="4.55825">
        <ele>86.942062</ele>
        <time>2003-10-17T17:51:36Z</time>
      </trkpt>
      <trkpt lat="44.30145" lon="4.55875">
        <ele>91.261818</ele>
        <time>2003-10-17T17:52:30Z</time>
      </trkpt>
      <trkpt lat="44.30039" lon="4.56147">
        <ele>81.721878</ele>
        <time>2003-10-17T17:52:48Z</time>
      </trkpt>
      <trkpt lat="44.30029" lon="4.56216">
        <ele>70.206009</ele>
        <time>2003-10-17T17:52:53Z</time>
      </trkpt>
      <trkpt lat="44.3002" lon="4.56315">
        <ele>62.046776</ele>
        <time>2003-10-17T17:53:00Z</time>
      </trkpt>
      <trkpt lat="44.29973" lon="4.56518">
        <ele>60.169998</ele>
        <time>2003-10-17T17:53:15Z</time>
      </trkpt>
      <trkpt lat="44.29939" lon="4.56617">
        <ele>60.019794</ele>
        <time>2003-10-17T17:53:24Z</time>
      </trkpt>
      <trkpt lat="44.29919" lon="4.56654">
        <ele>60</ele>
        <time>2003-10-17T17:53:33Z</time>
      </trkpt>
      <trkpt lat="44.30084" lon="4.56739">
        <ele>58</ele>
        <time>2003-10-17T17:54:24Z</time>
      </trkpt>
      <trkpt lat="44.3005" lon="4.56838">
        <ele>57.746639</ele>
        <time>2003-10-17T17:55:16Z</time>
      </trkpt>
    </trkseg>
  </trk>
</gpx>